
Distance (Route):
Temperature : -30.9°C
Humidity : 1.5%
Pressure : 6.4hPa| Receiver | Frames | First received | Last received |
|---|---|---|---|
| SQ9EZE-13 | 362 | 2026-09-01 23:26:39 | 2026-09-02 01:07:46 |
| SQ9EZE-14 | 75 | 2026-09-01 23:26:54 | 2026-09-02 01:06:10 |
| OE5DRO-10 | 61 | 2026-09-02 00:40:31 | 2026-09-02 01:07:51 |
| HA6NAB-11 | 59 | 2026-09-01 23:44:59 | 2026-09-02 00:52:55 |
| PG1ADW-2 | 49 | 2026-09-02 00:44:13 | 2026-09-02 01:07:56 |
| OE3JTB-15 | 19 | 2026-09-01 23:38:06 | 2026-09-02 00:09:02 |
| OE5DXL-15 | 17 | 2026-09-02 00:56:16 | 2026-09-02 01:05:17 |
| LZ4TU-5 | 12 | 2026-09-02 00:47:08 | 2026-09-02 01:04:13 |
| B-11 | 1 | 2026-09-02 00:00:45 | 2026-09-02 00:00:45 |
| Receiver | Date | Latitude | Longitude | Direction | Speed | Altitude | Climb | Temperature | Humidity | Pressure | Voltage | Killtimer | Uptime | BKT | XDATA |
|---|---|---|---|---|---|---|---|---|---|---|---|---|---|---|---|
| PG1ADW-2 | 2026-09-02 01:07:56 | 49.03936 | 21.27747 | 174° | 29km/h | 34725m | -70.1m/s | -30.9°C | 1.5% | 6.4hPa | 2.5V | 00:00:00 | 00:00:00 | 00:00:00 | |
| OE5DRO-10 | 2026-09-02 01:07:51 | 49.03982 | 21.27763 | 190° | 24km/h | 35060m | -60.9m/s | -31.5°C | 1.5% | 6.0hPa | 2.5V | 00:00:00 | 00:00:00 | 00:00:00 | |
| SQ9EZE-13 | 2026-09-02 01:07:46 | 49.04012 | 21.27766 | 161° | 22km/h | 35243m | -29.0m/s | -32.2°C | 0.4% | 5.8hPa | 2.5V | 00:00:00 | 00:00:00 | 00:00:00 | |
| PG1ADW-2 | 2026-09-02 01:06:14 | 49.04238 | 21.27289 | 1° | 29km/h | 34820m | 5.6m/s | -32.6°C | 1.7% | 6.1hPa | 2.5V | 00:00:00 | 02:05:55 | 00:00:00 | |
| SQ9EZE-13 | 2026-09-02 01:06:12 | 49.04234 | 21.27287 | 43° | 16km/h | 34816m | 4.7m/s | -32.6°C | 0.4% | 6.2hPa | 2.5V | 00:00:00 | 00:00:00 | 00:00:00 | |
| SQ9EZE-14 | 2026-09-02 01:06:10 | 49.04236 | 21.27259 | 127° | 42km/h | 34801m | 6.0m/s | -32.6°C | 0.4% | 6.2hPa | 2.5V | 00:00:00 | 00:00:00 | 00:00:00 | |
| OE5DRO-10 | 2026-09-02 01:05:25 | 49.04547 | 21.27061 | 187° | 29km/h | 34569m | 6.6m/s | -33.1°C | 1.7% | 6.3hPa | 2.5V | 00:00:00 | 00:00:00 | 00:00:00 | |
| PG1ADW-2 | 2026-09-02 01:05:21 | 49.04560 | 21.27062 | 128° | 31km/h | 34549m | 4.4m/s | -33.1°C | 1.7% | 6.4hPa | 2.6V | 00:00:00 | 00:00:00 | 00:00:00 | |
| OE5DXL-15 | 2026-09-02 01:05:17 | 49.04582 | 21.27022 | 133° | 31km/h | 34529m | 6.0m/s | -33.1°C | 1.7% | 6.4hPa | 2.5V | 00:00:00 | 00:00:00 | 08:30:00 | |
| SQ9EZE-13 | 2026-09-02 01:05:09 | 49.04631 | 21.26946 | 132° | 16km/h | 34488m | 5.4m/s | -33.5°C | 0.4% | 6.5hPa | 2.5V | 00:00:00 | 00:00:00 | 00:00:00 | |
| OE5DRO-10 | 2026-09-02 01:05:03 | 49.04671 | 21.26904 | 135° | 27km/h | 34449m | 5.0m/s | -33.9°C | 1.7% | 6.5hPa | 2.5V | 00:00:00 | 00:00:00 | 00:00:00 | |
| PG1ADW-2 | 2026-09-02 01:04:59 | 49.04684 | 21.26857 | 91° | 27km/h | 34424m | 5.3m/s | -34.3°C | 1.8% | 6.5hPa | 2.5V | 00:00:00 | 00:00:00 | 00:00:00 | |
| SQ9EZE-13 | 2026-09-02 01:04:54 | 49.04688 | 21.26818 | 116° | 24km/h | 34400m | 5.3m/s | -34.6°C | 0.5% | 6.6hPa | 2.5V | 00:00:00 | 00:00:00 | 00:00:00 | |
| OE5DXL-15 | 2026-09-02 01:04:47 | 49.04697 | 21.26757 | 76° | 35km/h | 34359m | 4.7m/s | -34.7°C | 1.9% | 6.6hPa | 2.5V | 00:00:00 | 00:00:00 | 00:00:00 | |
| OE5DRO-10 | 2026-09-02 01:04:44 | 49.04695 | 21.26719 | 95° | 37km/h | 34340m | 5.9m/s | -34.8°C | 1.8% | 6.6hPa | 2.5V | 00:00:00 | 00:00:00 | 00:00:00 | |
| SQ9EZE-13 | 2026-09-02 01:04:39 | 49.04694 | 21.26658 | 63° | 26km/h | 34312m | 6.0m/s | -35.1°C | 0.5% | 6.7hPa | 2.5V | 00:00:00 | 00:00:00 | 00:00:00 | |
| OE5DRO-10 | 2026-09-02 01:04:25 | 49.04662 | 21.26462 | 46° | 35km/h | 34237m | 5.2m/s | -35.3°C | 1.9% | 6.7hPa | 2.5V | 00:00:00 | 00:00:00 | 08:30:00 | |
| SQ9EZE-13 | 2026-09-02 01:04:23 | 49.04656 | 21.26453 | 49° | 31km/h | 34231m | 5.2m/s | -35.3°C | 0.5% | 6.7hPa | 2.5V | 00:00:00 | 00:00:00 | 00:00:00 | |
| PG1ADW-2 | 2026-09-02 01:04:18 | 49.04647 | 21.26385 | 81° | 35km/h | 34199m | 5.7m/s | -35.1°C | 1.9% | 6.7hPa | 2.5V | 00:00:00 | 00:00:00 | 08:30:00 | |
| LZ4TU-5 | 2026-09-02 01:04:13 | 49.04629 | 21.26331 | 54° | 40km/h | 34176m | 5.1m/s | 0°C | 0% | 0hPa | 2.6V | 00:00:00 | 00:00:00 | 00:00:00 | |
| LZ4TU-5 | 2026-09-02 01:04:09 | 49.04611 | 21.26283 | 77° | 35km/h | 34154m | 6.2m/s | 0°C | 0% | 0hPa | 2.6V | 00:00:00 | 00:00:00 | 00:00:00 | |
| SQ9EZE-13 | 2026-09-02 01:04:07 | 49.04608 | 21.26257 | 82° | 35km/h | 34142m | 4.7m/s | -34.9°C | 0.5% | 6.8hPa | 2.6V | 00:00:00 | 00:00:00 | 00:00:00 | |
| OE5DRO-10 | 2026-09-02 01:04:06 | 49.04603 | 21.26232 | 66° | 29km/h | 34132m | 6.4m/s | -34.8°C | 1.8% | 6.8hPa | 2.6V | 00:00:00 | 00:00:00 | 00:00:00 | |
| SQ9EZE-14 | 2026-09-02 01:04:03 | 49.04594 | 21.26211 | 49° | 35km/h | 34120m | 5.6m/s | -34.8°C | 0.5% | 6.9hPa | 2.6V | 00:00:00 | 00:00:00 | 00:00:00 | |
| PG1ADW-2 | 2026-09-02 01:03:58 | 49.04569 | 21.26152 | 75° | 24km/h | 34086m | 5.2m/s | -34.6°C | 1.8% | 6.8hPa | 2.6V | 00:00:00 | 00:00:00 | 00:00:00 | |
| SQ9EZE-13 | 2026-09-02 01:03:51 | 49.04551 | 21.26091 | 65° | 27km/h | 34052m | 5.4m/s | -34.9°C | 0.5% | 6.9hPa | 2.6V | 00:00:00 | 00:00:00 | 00:00:00 | |
| OE5DXL-15 | 2026-09-02 01:03:47 | 49.04542 | 21.26050 | 56° | 24km/h | 34025m | 6.1m/s | -35.3°C | 1.8% | 6.9hPa | 2.6V | 00:00:00 | 00:00:00 | 00:00:00 | |
| PG1ADW-2 | 2026-09-02 01:03:38 | 49.04520 | 21.25989 | 97° | 24km/h | 33972m | 4.7m/s | -35.8°C | 1.9% | 6.9hPa | 2.5V | 00:00:00 | 00:00:00 | 00:00:00 | |
| SQ9EZE-13 | 2026-09-02 01:03:35 | 49.04519 | 21.25973 | 72° | 22km/h | 33961m | 6.4m/s | -35.9°C | 0.5% | 7.0hPa | 2.5V | 00:00:00 | 00:00:00 | 00:00:00 | |
| OE5DRO-10 | 2026-09-02 01:03:28 | 49.04497 | 21.25918 | 90° | 29km/h | 33915m | 4.7m/s | -36.4°C | 1.9% | 7.0hPa | 2.5V | 00:00:00 | 00:00:00 | 00:00:00 | |
| SQ9EZE-13 | 2026-09-02 01:03:19 | 49.04463 | 21.25859 | 45° | 29km/h | 33868m | 6.2m/s | -37.0°C | 0.5% | 7.1hPa | 2.6V | 00:00:00 | 00:00:00 | 00:00:00 | |
| PG1ADW-2 | 2026-09-02 01:03:18 | 49.04454 | 21.25843 | 49° | 35km/h | 33857m | 4.7m/s | -37.0°C | 2.1% | 7.1hPa | 2.6V | 00:00:00 | 02:02:59 | 00:00:00 | |
| OE5DXL-15 | 2026-09-02 01:03:17 | 49.04449 | 21.25836 | 42° | 35km/h | 33852m | 4.8m/s | -37.0°C | 2.1% | 7.1hPa | 2.5V | 00:00:00 | 00:00:00 | 00:00:00 | |
| OE5DRO-10 | 2026-09-02 01:03:09 | 49.04386 | 21.25811 | 18° | 37km/h | 33804m | 5.7m/s | -36.9°C | 2.0% | 7.1hPa | 2.5V | 00:00:00 | 00:00:00 | 00:00:00 | |
| SQ9EZE-13 | 2026-09-02 01:03:03 | 49.04345 | 21.25788 | 19° | 44km/h | 33775m | 5.6m/s | -37.1°C | 0.5% | 7.2hPa | 2.5V | 00:00:00 | 00:00:00 | 00:00:00 | |
| PG1ADW-2 | 2026-09-02 01:02:58 | 49.04291 | 21.25750 | 35° | 31km/h | 33741m | 5.2m/s | -37.2°C | 2.1% | 7.2hPa | 2.5V | 00:00:00 | 00:00:00 | 00:00:00 | |
| OE5DRO-10 | 2026-09-02 01:02:50 | 49.04217 | 21.25749 | 2° | 26km/h | 33700m | 5.2m/s | -37.4°C | 2.0% | 7.2hPa | 2.5V | 00:00:00 | 00:00:00 | 00:00:00 | |
| SQ9EZE-13 | 2026-09-02 01:02:47 | 49.04203 | 21.25744 | 30° | 26km/h | 33687m | 6.3m/s | -37.5°C | 0.5% | 7.3hPa | 2.5V | 00:00:00 | 00:00:00 | 00:00:00 | |
| PG1ADW-2 | 2026-09-02 01:02:38 | 49.04147 | 21.25716 | 4° | 22km/h | 33629m | 6.2m/s | -37.6°C | 2.1% | 7.3hPa | 2.5V | 00:00:00 | 00:00:00 | 00:00:00 | |
| SQ9EZE-13 | 2026-09-02 01:02:32 | 49.04128 | 21.25694 | 45° | 27km/h | 33600m | 6.0m/s | -37.7°C | 0.6% | 7.4hPa | 2.5V | 00:00:00 | 00:00:00 | 00:00:00 | |
| OE5DRO-10 | 2026-09-02 01:02:31 | 49.04115 | 21.25680 | 26° | 24km/h | 33587m | 6.6m/s | -37.8°C | 2.1% | 7.3hPa | 2.5V | 00:00:00 | 00:00:00 | 00:00:00 | |
| PG1ADW-2 | 2026-09-02 01:02:18 | 49.04046 | 21.25674 | 358° | 22km/h | 33514m | 5.5m/s | -37.9°C | 2.2% | 7.4hPa | 2.5V | 00:00:00 | 00:00:00 | 00:00:00 | |
| OE5DXL-15 | 2026-09-02 01:02:17 | 49.04036 | 21.25674 | 2° | 18km/h | 33508m | 5.9m/s | -38.0°C | 2.2% | 7.4hPa | 2.5V | 00:00:00 | 00:00:00 | 00:00:00 | |
| SQ9EZE-13 | 2026-09-02 01:02:16 | 49.04037 | 21.25674 | 3° | 40km/h | 33508m | 5.9m/s | -38.0°C | 0.6% | 7.5hPa | 2.5V | 00:00:00 | 00:00:00 | 00:00:00 | |
| OE5DRO-10 | 2026-09-02 01:02:12 | 49.04000 | 21.25657 | 26° | 16km/h | 33480m | 5.0m/s | -38.0°C | 2.2% | 7.5hPa | 2.5V | 00:00:00 | 00:00:00 | 00:00:00 | |
| SQ9EZE-13 | 2026-09-02 01:02:01 | 49.03971 | 21.25657 | 46° | 24km/h | 33425m | 5.3m/s | -37.8°C | 0.6% | 7.6hPa | 2.5V | 00:00:00 | 00:00:00 | 00:00:00 | |
| PG1ADW-2 | 2026-09-02 01:01:58 | 49.03953 | 21.25643 | 2° | 15km/h | 33402m | 4.9m/s | -37.7°C | 2.1% | 7.5hPa | 2.5V | 00:00:00 | 02:01:39 | 00:00:00 | |
| OE5DRO-10 | 2026-09-02 01:01:53 | 49.03955 | 21.25657 | 241° | 16km/h | 33371m | 4.8m/s | -37.7°C | 2.1% | 7.6hPa | 2.5V | 00:00:00 | 00:00:00 | 00:00:00 | |
| OE5DXL-15 | 2026-09-02 01:01:47 | 49.03942 | 21.25653 | 56° | 22km/h | 33339m | 7.0m/s | -38.0°C | 2.2% | 7.6hPa | 2.5V | 00:00:00 | 00:00:00 | 00:00:00 | |
| SQ9EZE-13 | 2026-09-02 01:01:45 | 49.03939 | 21.25644 | 67° | 27km/h | 33332m | 5.6m/s | -38.1°C | 0.5% | 7.7hPa | 2.5V | 00:00:00 | 00:00:00 | 00:00:00 | |
| PG1ADW-2 | 2026-09-02 01:01:38 | 49.03923 | 21.25642 | 293° | 22km/h | 33289m | 3.5m/s | -38.0°C | 2.2% | 7.7hPa | 2.5V | 00:00:00 | 00:00:00 | 00:00:00 | |
| OE5DRO-10 | 2026-09-02 01:01:34 | 49.03921 | 21.25626 | 83° | 26km/h | 33267m | 5.6m/s | -38.1°C | 2.2% | 7.7hPa | 2.5V | 00:00:00 | 00:00:00 | 08:30:00 | |
| SQ9EZE-14 | 2026-09-02 01:01:31 | 49.03916 | 21.25600 | 68° | 35km/h | 33258m | 4.3m/s | -38.1°C | 0.5% | 7.8hPa | 2.5V | 00:00:00 | 00:00:00 | 00:00:00 | |
| SQ9EZE-13 | 2026-09-02 01:01:30 | 49.03912 | 21.25590 | 52° | 29km/h | 33252m | 5.5m/s | -38.1°C | 0.5% | 7.8hPa | 2.5V | 00:00:00 | 00:00:00 | 00:00:00 | |
| PG1ADW-2 | 2026-09-02 01:01:18 | 49.03859 | 21.25554 | 32° | 29km/h | 33174m | 5.0m/s | -38.3°C | 2.2% | 7.8hPa | 2.5V | 00:00:00 | 00:00:00 | 08:30:00 | |
| OE5DXL-15 | 2026-09-02 01:01:17 | 49.03851 | 21.25548 | 22° | 27km/h | 33168m | 4.8m/s | -38.4°C | 2.2% | 7.8hPa | 2.5V | 00:00:00 | 00:00:00 | 00:00:00 | |
| SQ9EZE-14 | 2026-09-02 01:01:16 | 49.03851 | 21.25548 | 23° | 35km/h | 33168m | 4.8m/s | -38.5°C | 0.6% | 7.9hPa | 2.5V | 00:00:00 | 00:00:00 | 00:00:00 | |
| OE5DRO-10 | 2026-09-02 01:01:15 | 49.03837 | 21.25542 | 11° | 33km/h | 33157m | 6.3m/s | -38.6°C | 2.2% | 7.8hPa | 2.5V | 00:00:00 | 00:00:00 | 00:00:00 | |
| SQ9EZE-13 | 2026-09-02 01:00:59 | 49.03737 | 21.25530 | 340° | 26km/h | 33069m | 6.2m/s | -38.6°C | 0.6% | 8.0hPa | 2.5V | 00:00:00 | 00:00:00 | 00:00:00 | |
| PG1ADW-2 | 2026-09-02 01:00:58 | 49.03722 | 21.25537 | 351° | 26km/h | 33057m | 5.2m/s | -38.5°C | 2.2% | 8.0hPa | 2.5V | 00:00:00 | 00:00:00 | 00:00:00 | |
| OE5DRO-10 | 2026-09-02 01:00:55 | 49.03695 | 21.25540 | 360° | 26km/h | 33042m | 5.9m/s | -38.4°C | 2.2% | 8.0hPa | 2.5V | 00:00:00 | 00:00:00 | 00:00:00 | |
| OE5DXL-15 | 2026-09-02 01:00:47 | 49.03645 | 21.25545 | 360° | 22km/h | 32998m | 5.3m/s | -38.3°C | 2.2% | 8.0hPa | 2.5V | 00:00:00 | 00:00:00 | 08:30:00 | |
| SQ9EZE-13 | 2026-09-02 01:00:44 | 49.03630 | 21.25545 | 1° | 27km/h | 32988m | 5.7m/s | -38.4°C | 0.6% | 8.1hPa | 2.6V | 00:00:00 | 00:00:00 | 00:00:00 | |
| PG1ADW-2 | 2026-09-02 01:00:38 | 49.03592 | 21.25564 | 332° | 20km/h | 32943m | 5.9m/s | -38.4°C | 2.2% | 8.1hPa | 2.6V | 00:00:00 | 02:00:19 | 00:00:00 | |
| OE5DRO-10 | 2026-09-02 01:00:36 | 49.03578 | 21.25575 | 330° | 18km/h | 32932m | 5.2m/s | -38.5°C | 2.2% | 8.1hPa | 2.6V | 00:00:00 | 00:00:00 | 00:00:00 | |
| SQ9EZE-13 | 2026-09-02 01:00:28 | 49.03551 | 21.25587 | 8° | 20km/h | 32890m | 6.2m/s | -38.3°C | 0.6% | 8.2hPa | 2.5V | 00:00:00 | 00:00:00 | 00:00:00 | |
| PG1ADW-2 | 2026-09-02 01:00:18 | 49.03500 | 21.25611 | 353° | 15km/h | 32825m | 5.0m/s | -38.3°C | 2.2% | 8.2hPa | 2.5V | 00:00:00 | 00:00:00 | 00:00:00 | |
| OE5DXL-15 | 2026-09-02 01:00:17 | 49.03496 | 21.25612 | 354° | 16km/h | 32819m | 6.6m/s | -38.3°C | 2.2% | 8.3hPa | 2.5V | 00:00:00 | 00:00:00 | 00:00:00 | |
| SQ9EZE-13 | 2026-09-02 01:00:12 | 49.03488 | 21.25610 | 28° | 11km/h | 32796m | 6.0m/s | -38.5°C | 0.6% | 8.3hPa | 2.5V | 00:00:00 | 00:00:00 | 00:00:00 | |
| SQ9EZE-13 | 2026-09-02 00:59:58 | 49.03425 | 21.25598 | 17° | 16km/h | 32708m | 7.1m/s | -38.5°C | 0.6% | 8.4hPa | 2.5V | 00:00:00 | 00:00:00 | 00:00:00 | |
| LZ4TU-5 | 2026-09-02 00:59:52 | 49.03410 | 21.25591 | 13° | 20km/h | 32678m | 6.6m/s | 0°C | 0% | 0hPa | 2.5V | 00:00:00 | 00:00:00 | 00:00:00 | |
| OE5DXL-15 | 2026-09-02 00:59:47 | 49.03370 | 21.25585 | 353° | 13km/h | 32642m | 6.3m/s | -38.4°C | 2.2% | 8.5hPa | 2.5V | 00:00:00 | 00:00:00 | 00:00:00 | |
| SQ9EZE-13 | 2026-09-02 00:59:41 | 49.03357 | 21.25583 | 22° | 15km/h | 32612m | 5.3m/s | -38.4°C | 0.5% | 8.6hPa | 2.5V | 00:00:00 | 00:00:00 | 00:00:00 | |
| OE5DRO-10 | 2026-09-02 00:59:39 | 49.03346 | 21.25579 | 2° | 13km/h | 32593m | 6.9m/s | -38.4°C | 2.2% | 8.5hPa | 2.5V | 00:00:00 | 00:00:00 | 00:00:00 | |
| PG1ADW-2 | 2026-09-02 00:59:38 | 49.03342 | 21.25579 | 355° | 13km/h | 32586m | 5.5m/s | -38.4°C | 2.2% | 8.5hPa | 2.5V | 00:00:00 | 00:00:00 | 00:00:00 | |
| SQ9EZE-13 | 2026-09-02 00:59:26 | 49.03314 | 21.25586 | 246° | 5km/h | 32522m | 5.0m/s | -38.4°C | 0.5% | 8.7hPa | 2.5V | 00:00:00 | 00:00:00 | 00:00:00 | |
| PG1ADW-2 | 2026-09-02 00:59:18 | 49.03289 | 21.25591 | 338° | 13km/h | 32474m | 5.3m/s | -38.5°C | 2.1% | 8.7hPa | 2.5V | 00:00:00 | 01:58:59 | 00:00:00 | |
| OE5DXL-15 | 2026-09-02 00:59:17 | 49.03286 | 21.25593 | 344° | 13km/h | 32467m | 6.5m/s | 0°C | 0% | 0hPa | 2.5V | 00:00:00 | 00:00:00 | 00:00:00 | |
| SQ9EZE-14 | 2026-09-02 00:59:12 | 49.03279 | 21.25592 | 112° | 5km/h | 32443m | 6.6m/s | -38.8°C | 0.6% | 8.8hPa | 2.5V | 00:00:00 | 00:00:00 | 00:00:00 | |
| SQ9EZE-13 | 2026-09-02 00:59:10 | 49.03281 | 21.25586 | 125° | 11km/h | 32430m | 4.6m/s | -39.1°C | 0.6% | 8.8hPa | 2.5V | 00:00:00 | 00:00:00 | 00:00:00 | |
| OE5DRO-10 | 2026-09-02 00:59:01 | 49.03253 | 21.25559 | 114° | 13km/h | 32376m | 5.8m/s | -39.6°C | 2.3% | 8.8hPa | 2.5V | 00:00:00 | 00:00:00 | 00:00:00 | |
| PG1ADW-2 | 2026-09-02 00:58:57 | 49.03257 | 21.25540 | 61° | 13km/h | 32352m | 6.3m/s | -39.6°C | 2.3% | 8.8hPa | 2.5V | 00:00:00 | 00:00:00 | 00:00:00 | |
| SQ9EZE-14 | 2026-09-02 00:58:56 | 49.03257 | 21.25540 | 62° | 11km/h | 32352m | 6.3m/s | -39.7°C | 0.6% | 8.9hPa | 2.5V | 00:00:00 | 00:00:00 | 00:00:00 | |
| SQ9EZE-13 | 2026-09-02 00:58:55 | 49.03255 | 21.25537 | 21° | 13km/h | 32346m | 6.1m/s | -39.7°C | 0.6% | 8.9hPa | 2.5V | 00:00:00 | 00:00:00 | 00:00:00 | |
| OE5DXL-15 | 2026-09-02 00:58:47 | 49.03230 | 21.25545 | 64° | 15km/h | 32291m | 6.4m/s | 0°C | 0% | 0hPa | 2.5V | 00:00:00 | 00:00:00 | 00:00:00 | |
| OE5DRO-10 | 2026-09-02 00:58:42 | 49.03227 | 21.25527 | 253° | 13km/h | 32262m | 5.9m/s | -40.0°C | 2.4% | 9.0hPa | 2.5V | 00:00:00 | 00:00:00 | 08:30:00 | |
| SQ9EZE-13 | 2026-09-02 00:58:39 | 49.03226 | 21.25534 | 301° | 15km/h | 32252m | 5.1m/s | -40.1°C | 0.6% | 9.0hPa | 2.6V | 00:00:00 | 00:00:00 | 00:00:00 | |
| PG1ADW-2 | 2026-09-02 00:58:37 | 49.03214 | 21.25546 | 347° | 13km/h | 32233m | 5.1m/s | -39.9°C | 2.4% | 9.0hPa | 2.6V | 00:00:00 | 00:00:00 | 00:00:00 | |
| SQ9EZE-13 | 2026-09-02 00:58:24 | 49.03196 | 21.25532 | 49° | 11km/h | 32164m | 4.9m/s | -39.6°C | 0.6% | 9.1hPa | 2.6V | 00:00:00 | 00:00:00 | 00:00:00 | |
| OE5DRO-10 | 2026-09-02 00:58:23 | 49.03193 | 21.25529 | 350° | 13km/h | 32150m | 6.8m/s | -39.5°C | 2.3% | 9.1hPa | 2.6V | 00:00:00 | 00:00:00 | 00:00:00 | |
| OE5DXL-15 | 2026-09-02 00:58:16 | 49.03179 | 21.25556 | 286° | 11km/h | 32110m | 5.4m/s | 0°C | 0% | 0hPa | 2.6V | 00:00:00 | 00:00:00 | 00:00:00 | |
| PG1ADW-2 | 2026-09-02 00:58:10 | 49.03190 | 21.25554 | 90° | 9km/h | 32076m | 6.1m/s | -39.5°C | 2.3% | 9.2hPa | 2.6V | 00:00:00 | 00:00:00 | 08:30:00 | |
| SQ9EZE-13 | 2026-09-02 00:58:08 | 49.03189 | 21.25552 | 27° | 9km/h | 32070m | 5.3m/s | -39.6°C | 0.6% | 9.3hPa | 2.6V | 00:00:00 | 00:00:00 | 00:00:00 | |
| OE5DRO-10 | 2026-09-02 00:58:04 | 49.03177 | 21.25579 | 267° | 15km/h | 32042m | 5.0m/s | -39.6°C | 2.3% | 9.3hPa | 2.6V | 00:00:00 | 00:00:00 | 00:00:00 | |
| LZ4TU-5 | 2026-09-02 00:57:56 | 49.03178 | 21.25597 | 7° | 13km/h | 32006m | 5.0m/s | 0°C | 0% | 0hPa | 2.6V | 00:00:00 | 00:00:00 | 00:00:00 | |
| SQ9EZE-13 | 2026-09-02 00:57:53 | 49.03169 | 21.25621 | 269° | 31km/h | 31982m | 5.3m/s | -39.8°C | 0.6% | 9.4hPa | 2.6V | 00:00:00 | 00:00:00 | 00:00:00 | |
| LZ4TU-5 | 2026-09-02 00:57:51 | 49.03170 | 21.25632 | 262° | 31km/h | 31977m | 4.9m/s | 0°C | 0% | 0hPa | 2.6V | 00:00:00 | 00:00:00 | 00:00:00 | |
| PG1ADW-2 | 2026-09-02 00:57:50 | 49.03173 | 21.25652 | 255° | 11km/h | 31966m | 5.5m/s | -39.8°C | 2.4% | 9.4hPa | 2.6V | 00:00:00 | 01:57:31 | 00:00:00 | |
| OE5DXL-15 | 2026-09-02 00:57:46 | 49.03174 | 21.25660 | 13° | 13km/h | 31942m | 6.3m/s | 0°C | 0% | 0hPa | 2.6V | 00:00:00 | 00:00:00 | 00:00:00 | |
| OE5DRO-10 | 2026-09-02 00:57:45 | 49.03172 | 21.25660 | 357° | 11km/h | 31935m | 6.4m/s | -39.7°C | 2.3% | 9.4hPa | 2.6V | 00:00:00 | 00:00:00 | 00:00:00 | |
| SQ9EZE-13 | 2026-09-02 00:57:36 | 49.03175 | 21.25678 | 218° | 16km/h | 31890m | 5.4m/s | -39.8°C | 0.6% | 9.5hPa | 2.6V | 00:00:00 | 00:00:00 | 00:00:00 | |
| PG1ADW-2 | 2026-09-02 00:57:30 | 49.03194 | 21.25703 | 139° | 16km/h | 31848m | 6.5m/s | -39.8°C | 2.3% | 9.5hPa | 2.6V | 00:00:00 | 00:00:00 | 00:00:00 | |
| OE5DRO-10 | 2026-09-02 00:57:26 | 49.03201 | 21.25692 | 185° | 16km/h | 31823m | 5.4m/s | -39.8°C | 2.3% | 9.6hPa | 2.6V | 00:00:00 | 00:00:00 | 00:00:00 | |
| SQ9EZE-13 | 2026-09-02 00:57:20 | 49.03217 | 21.25699 | 185° | 20km/h | 31794m | 5.8m/s | -39.8°C | 0.6% | 9.7hPa | 2.6V | 00:00:00 | 00:00:00 | 00:00:00 | |
| OE5DXL-15 | 2026-09-02 00:57:16 | 49.03240 | 21.25705 | 187° | 20km/h | 31765m | 4.6m/s | 0°C | 0% | 0hPa | 2.6V | 00:00:00 | 00:00:00 | 00:00:00 | |
| OE5DRO-10 | 2026-09-02 00:57:07 | 49.03273 | 21.25670 | 170° | 20km/h | 31710m | 5.7m/s | -39.6°C | 2.3% | 9.7hPa | 2.6V | 00:00:00 | 00:00:00 | 00:00:00 | |
| PG1ADW-2 | 2026-09-02 00:57:05 | 49.03279 | 21.25670 | 178° | 22km/h | 31699m | 6.7m/s | -39.7°C | 2.2% | 9.7hPa | 2.6V | 00:00:00 | 00:00:00 | 00:00:00 | |
| SQ9EZE-13 | 2026-09-02 00:57:04 | 49.03279 | 21.25670 | 179° | 15km/h | 31699m | 6.7m/s | -39.7°C | 0.6% | 9.8hPa | 2.5V | 00:00:00 | 00:00:00 | 00:00:00 | |
| SQ9EZE-14 | 2026-09-02 00:56:50 | 49.03345 | 21.25613 | 161° | 7km/h | 31612m | 5.7m/s | -40.3°C | 0.6% | 9.9hPa | 2.5V | 00:00:00 | 00:00:00 | 00:00:00 | |
| SQ9EZE-13 | 2026-09-02 00:56:49 | 49.03347 | 21.25612 | 173° | 9km/h | 31607m | 5.1m/s | -40.4°C | 0.6% | 9.9hPa | 2.5V | 00:00:00 | 00:00:00 | 00:00:00 | |
| OE5DRO-10 | 2026-09-02 00:56:48 | 49.03353 | 21.25610 | 160° | 16km/h | 31596m | 6.8m/s | -40.4°C | 2.4% | 9.9hPa | 2.5V | 00:00:00 | 00:00:00 | 00:00:00 | |
| OE5DXL-15 | 2026-09-02 00:56:46 | 49.03364 | 21.25601 | 147° | 18km/h | 31583m | 5.5m/s | 0°C | 0% | 0hPa | 2.5V | 00:00:00 | 01:56:27 | 00:00:00 | |
| PG1ADW-2 | 2026-09-02 00:56:45 | 49.03370 | 21.25594 | 141° | 16km/h | 31577m | 5.3m/s | -40.6°C | 2.4% | 9.9hPa | 2.5V | 00:00:00 | 00:00:00 | 00:00:00 | |
| SQ9EZE-13 | 2026-09-02 00:56:33 | 49.03393 | 21.25529 | 123° | 9km/h | 31513m | 6.8m/s | -40.9°C | 0.6% | 10.0hPa | 2.5V | 00:00:00 | 00:00:00 | 00:00:00 | |
| OE5DRO-10 | 2026-09-02 00:56:29 | 49.03401 | 21.25513 | 126° | 16km/h | 31482m | 6.6m/s | -40.9°C | 2.4% | 10.1hPa | 2.5V | 00:00:00 | 00:00:00 | 00:00:00 | |
| PG1ADW-2 | 2026-09-02 00:56:25 | 49.03408 | 21.25485 | 90° | 15km/h | 31456m | 6.2m/s | -41.0°C | 2.5% | 10.1hPa | 2.5V | 00:00:00 | 01:56:06 | 00:00:00 | |
| SQ9EZE-13 | 2026-09-02 00:56:18 | 49.03413 | 21.25449 | 132° | 13km/h | 31422m | 5.9m/s | -41.2°C | 0.7% | 10.2hPa | 2.5V | 00:00:00 | 00:00:00 | 00:00:00 | |
| OE5DXL-15 | 2026-09-02 00:56:16 | 49.03419 | 21.25442 | 159° | 15km/h | 31403m | 5.0m/s | 0°C | 0% | 0hPa | 2.5V | 00:00:00 | 00:00:00 | 00:00:00 | |
| OE5DRO-10 | 2026-09-02 00:56:10 | 49.03439 | 21.25419 | 114° | 16km/h | 31367m | 6.9m/s | -41.3°C | 2.5% | 10.2hPa | 2.5V | 00:00:00 | 00:00:00 | 00:00:00 | |
| PG1ADW-2 | 2026-09-02 00:56:05 | 49.03441 | 21.25391 | 115° | 18km/h | 31336m | 6.5m/s | -41.3°C | 2.5% | 10.3hPa | 2.5V | 00:00:00 | 00:00:00 | 00:00:00 | |
| SQ9EZE-13 | 2026-09-02 00:56:02 | 49.03447 | 21.25379 | 132° | 20km/h | 31324m | 5.6m/s | -41.4°C | 0.7% | 10.4hPa | 2.6V | 00:00:00 | 00:00:00 | 00:00:00 | |
| OE5DRO-10 | 2026-09-02 00:55:49 | 49.03482 | 21.25308 | 110° | 26km/h | 31239m | 6.4m/s | -41.3°C | 2.5% | 10.4hPa | 2.6V | 00:00:00 | 00:00:00 | 08:30:00 | |
| SQ9EZE-13 | 2026-09-02 00:55:46 | 49.03488 | 21.25293 | 129° | 29km/h | 31226m | 5.4m/s | -41.4°C | 0.6% | 10.5hPa | 2.5V | 00:00:00 | 00:00:00 | 00:00:00 | |
| PG1ADW-2 | 2026-09-02 00:55:45 | 49.03497 | 21.25276 | 127° | 24km/h | 31215m | 5.7m/s | -41.5°C | 2.5% | 10.5hPa | 2.5V | 00:00:00 | 00:00:00 | 00:00:00 | |
| OE5DRO-10 | 2026-09-02 00:55:30 | 49.03512 | 21.25149 | 111° | 18km/h | 31122m | 5.5m/s | -41.5°C | 2.5% | 10.6hPa | 2.5V | 00:00:00 | 00:00:00 | 00:00:00 | |
| PG1ADW-2 | 2026-09-02 00:55:25 | 49.03520 | 21.25110 | 75° | 16km/h | 31092m | 5.7m/s | -41.4°C | 2.5% | 10.7hPa | 2.5V | 00:00:00 | 00:00:00 | 00:00:00 | |
| LZ4TU-5 | 2026-09-02 00:55:19 | 49.03521 | 21.25084 | 99° | 24km/h | 31061m | 6.0m/s | 0°C | 0% | 0hPa | 2.5V | 00:00:00 | 00:00:00 | 00:00:00 | |
| SQ9EZE-13 | 2026-09-02 00:55:15 | 49.03521 | 21.25042 | 86° | 27km/h | 31036m | 4.4m/s | -41.5°C | 0.7% | 10.8hPa | 2.5V | 00:00:00 | 00:00:00 | 00:00:00 | |
| PG1ADW-2 | 2026-09-02 00:55:05 | 49.03523 | 21.25003 | 73° | 11km/h | 30971m | 6.6m/s | -41.7°C | 2.5% | 10.9hPa | 2.5V | 00:00:00 | 01:54:46 | 08:30:00 | |
| SQ9EZE-13 | 2026-09-02 00:54:59 | 49.03532 | 21.24975 | 111° | 16km/h | 30941m | 6.3m/s | -41.8°C | 0.7% | 11.0hPa | 2.6V | 00:00:00 | 00:00:00 | 00:00:00 | |
| OE5DRO-10 | 2026-09-02 00:54:51 | 49.03540 | 21.24962 | 219° | 13km/h | 30887m | 6.7m/s | -42.0°C | 2.6% | 11.0hPa | 2.6V | 00:00:00 | 00:00:00 | 00:00:00 | |
| PG1ADW-2 | 2026-09-02 00:54:45 | 49.03544 | 21.24963 | 92° | 13km/h | 30849m | 6.9m/s | -42.0°C | 2.6% | 11.1hPa | 2.6V | 00:00:00 | 00:00:00 | 00:00:00 | |
| SQ9EZE-13 | 2026-09-02 00:54:44 | 49.03544 | 21.24963 | 92° | 18km/h | 30849m | 6.9m/s | -42.1°C | 0.7% | 11.1hPa | 2.6V | 00:00:00 | 00:00:00 | 00:00:00 | |
| OE5DRO-10 | 2026-09-02 00:54:31 | 49.03530 | 21.24939 | 71° | 9km/h | 30765m | 6.6m/s | -42.0°C | 2.6% | 11.2hPa | 2.6V | 00:00:00 | 00:00:00 | 00:00:00 | |
| SQ9EZE-13 | 2026-09-02 00:54:29 | 49.03528 | 21.24934 | 55° | 15km/h | 30759m | 5.5m/s | -42.1°C | 0.7% | 11.3hPa | 2.6V | 00:00:00 | 00:00:00 | 00:00:00 | |
| PG1ADW-2 | 2026-09-02 00:54:25 | 49.03521 | 21.24928 | 240° | 7km/h | 30729m | 6.6m/s | -41.9°C | 2.6% | 11.3hPa | 2.6V | 00:00:00 | 00:00:00 | 00:00:00 | |
| SQ9EZE-14 | 2026-09-02 00:54:14 | 49.03518 | 21.24936 | 124° | 11km/h | 30665m | 5.8m/s | -42.1°C | 0.7% | 11.4hPa | 2.6V | 00:00:00 | 00:00:00 | 00:00:00 | |
| OE5DRO-10 | 2026-09-02 00:54:12 | 49.03518 | 21.24929 | 353° | 11km/h | 30646m | 5.1m/s | -42.0°C | 2.6% | 11.4hPa | 2.6V | 00:00:00 | 00:00:00 | 00:00:00 | |
| PG1ADW-2 | 2026-09-02 00:54:05 | 49.03523 | 21.24950 | 291° | 13km/h | 30604m | 5.9m/s | -41.9°C | 2.6% | 11.5hPa | 2.6V | 00:00:00 | 00:00:00 | 00:00:00 | |
| SQ9EZE-13 | 2026-09-02 00:53:59 | 49.03527 | 21.24939 | 139° | 18km/h | 30575m | 6.6m/s | -41.9°C | 0.7% | 11.6hPa | 2.5V | 00:00:00 | 00:00:00 | 00:00:00 | |
| OE5DRO-10 | 2026-09-02 00:53:52 | 49.03526 | 21.24912 | 36° | 18km/h | 30528m | 5.7m/s | -41.8°C | 2.6% | 11.6hPa | 2.5V | 00:00:00 | 00:00:00 | 00:00:00 | |
| PG1ADW-2 | 2026-09-02 00:53:44 | 49.03521 | 21.24867 | 130° | 20km/h | 30480m | 6.5m/s | -42.0°C | 2.6% | 11.7hPa | 2.5V | 00:00:00 | 01:53:25 | 00:00:00 | |
| SQ9EZE-13 | 2026-09-02 00:53:43 | 49.03521 | 21.24867 | 130° | 11km/h | 30480m | 6.6m/s | -42.0°C | 0.7% | 11.7hPa | 2.5V | 00:00:00 | 00:00:00 | 00:00:00 | |
| OE5DRO-10 | 2026-09-02 00:53:33 | 49.03503 | 21.24779 | 74° | 20km/h | 30414m | 4.6m/s | -41.8°C | 2.6% | 11.8hPa | 2.5V | 00:00:00 | 00:00:00 | 00:00:00 | |
| LZ4TU-5 | 2026-09-02 00:53:29 | 49.03492 | 21.24751 | 46° | 16km/h | 30391m | 4.9m/s | 0°C | 0% | 0hPa | 2.5V | 00:00:00 | 00:00:00 | 00:00:00 | |
| SQ9EZE-13 | 2026-09-02 00:53:28 | 49.03492 | 21.24751 | 46° | 16km/h | 30391m | 4.9m/s | -42.0°C | 0.7% | 11.9hPa | 2.5V | 00:00:00 | 00:00:00 | 00:00:00 | |
| PG1ADW-2 | 2026-09-02 00:53:24 | 49.03487 | 21.24731 | 85° | 20km/h | 30363m | 5.3m/s | -42.0°C | 2.6% | 11.9hPa | 2.5V | 00:00:00 | 00:00:00 | 00:00:00 | |
| OE5DRO-10 | 2026-09-02 00:53:14 | 49.03454 | 21.24654 | 37° | 13km/h | 30303m | 4.8m/s | -42.1°C | 2.6% | 12.0hPa | 2.5V | 00:00:00 | 00:00:00 | 00:00:00 | |
| SQ9EZE-13 | 2026-09-02 00:53:12 | 49.03453 | 21.24652 | 41° | 5km/h | 30297m | 6.1m/s | -42.2°C | 0.7% | 12.1hPa | 2.5V | 00:00:00 | 00:00:00 | 00:00:00 | |
| PG1ADW-2 | 2026-09-02 00:53:04 | 49.03432 | 21.24613 | 35° | 15km/h | 30246m | 6.3m/s | -42.2°C | 2.6% | 12.1hPa | 2.5V | 00:00:00 | 00:00:00 | 00:00:00 | |
| SQ9EZE-13 | 2026-09-02 00:52:57 | 49.03412 | 21.24603 | 53° | 7km/h | 30212m | 5.5m/s | -42.1°C | 0.7% | 12.2hPa | 2.5V | 00:00:00 | 00:00:00 | 00:00:00 | |
| HA6NAB-11 | 2026-09-02 00:52:55 | 49.03411 | 21.24598 | 106° | 7km/h | 30201m | 5.4m/s | -42.1°C | 0.7% | 12.3hPa | 2.5V | 00:00:00 | 00:00:00 | 00:00:00 | |
| HA6NAB-11 | 2026-09-02 00:52:47 | 49.03392 | 21.24564 | 7° | 27km/h | 30148m | 5.4m/s | -42.0°C | 0.7% | 12.3hPa | 2.5V | 00:00:00 | 00:00:00 | 00:00:00 | |
| PG1ADW-2 | 2026-09-02 00:52:43 | 49.03377 | 21.24569 | 252° | 11km/h | 30128m | 6.3m/s | -41.9°C | 2.6% | 12.3hPa | 2.5V | 00:00:00 | 00:00:00 | 00:00:00 | |
| SQ9EZE-13 | 2026-09-02 00:52:42 | 49.03377 | 21.24570 | 252° | 2km/h | 30128m | 6.4m/s | -42.0°C | 0.7% | 12.4hPa | 2.5V | 00:00:00 | 00:00:00 | 00:00:00 | |
| HA6NAB-11 | 2026-09-02 00:52:41 | 49.03378 | 21.24570 | 192° | 7km/h | 30121m | 7.2m/s | -41.9°C | 0.7% | 12.4hPa | 2.5V | 00:00:00 | 00:00:00 | 00:00:00 | |
| HA6NAB-11 | 2026-09-02 00:52:35 | 49.03385 | 21.24562 | 354° | 9km/h | 30085m | 5.0m/s | -41.8°C | 0.7% | 12.5hPa | 2.5V | 00:00:00 | 00:00:00 | 00:00:00 | |
| HA6NAB-11 | 2026-09-02 00:52:30 | 49.03366 | 21.24553 | 38° | 13km/h | 30058m | 4.1m/s | -41.8°C | 0.7% | 12.5hPa | 2.5V | 00:00:00 | 00:00:00 | 00:00:00 | |
| SQ9EZE-13 | 2026-09-02 00:52:26 | 49.03368 | 21.24552 | 203° | 11km/h | 30035m | 3.4m/s | -41.8°C | 0.7% | 12.6hPa | 2.5V | 00:00:00 | 00:00:00 | 00:00:00 | |
| HA6NAB-11 | 2026-09-02 00:52:25 | 49.03372 | 21.24552 | 140° | 9km/h | 30025m | 6.3m/s | -41.8°C | 0.7% | 12.6hPa | 2.5V | 00:00:00 | 00:00:00 | 00:00:00 | |
| PG1ADW-2 | 2026-09-02 00:52:23 | 49.03373 | 21.24543 | 72° | 13km/h | 30012m | 6.0m/s | -41.8°C | 2.5% | 12.6hPa | 2.5V | 00:00:00 | 01:52:04 | 00:00:00 | |
| OE5DRO-10 | 2026-09-02 00:52:14 | 49.03351 | 21.24527 | 77° | 13km/h | 29960m | 6.1m/s | -41.9°C | 2.5% | 12.6hPa | 2.5V | 00:00:00 | 00:00:00 | 08:30:00 | |
| SQ9EZE-13 | 2026-09-02 00:52:11 | 49.03351 | 21.24519 | 102° | 16km/h | 29948m | 4.5m/s | -42.0°C | 0.7% | 12.7hPa | 2.6V | 00:00:00 | 00:00:00 | 00:00:00 | |
| SQ9EZE-14 | 2026-09-02 00:52:09 | 49.03353 | 21.24507 | 113° | 16km/h | 29939m | 5.8m/s | -42.0°C | 0.7% | 12.7hPa | 2.6V | 00:00:00 | 00:00:00 | 00:00:00 | |
| PG1ADW-2 | 2026-09-02 00:52:03 | 49.03346 | 21.24491 | 11° | 11km/h | 29899m | 4.6m/s | -42.2°C | 2.6% | 12.8hPa | 2.6V | 00:00:00 | 00:00:00 | 08:30:00 | |
| SQ9EZE-13 | 2026-09-02 00:51:55 | 49.03332 | 21.24480 | 98° | 15km/h | 29857m | 5.7m/s | -42.5°C | 0.7% | 12.9hPa | 2.6V | 00:00:00 | 00:00:00 | 00:00:00 | |
| SQ9EZE-14 | 2026-09-02 00:51:53 | 49.03334 | 21.24466 | 104° | 18km/h | 29847m | 4.6m/s | -42.6°C | 0.7% | 12.9hPa | 2.6V | 00:00:00 | 00:00:00 | 00:00:00 | |
| PG1ADW-2 | 2026-09-02 00:51:43 | 49.03341 | 21.24442 | 140° | 16km/h | 29783m | 5.0m/s | -42.9°C | 2.7% | 13.0hPa | 2.6V | 00:00:00 | 00:00:00 | 00:00:00 | |
| SQ9EZE-13 | 2026-09-02 00:51:39 | 49.03351 | 21.24423 | 118° | 27km/h | 29766m | 6.3m/s | -42.9°C | 0.7% | 13.0hPa | 2.6V | 00:00:00 | 00:00:00 | 00:00:00 | |
| SQ9EZE-13 | 2026-09-02 00:51:24 | 49.03364 | 21.24350 | 132° | 20km/h | 29683m | 4.7m/s | -43.1°C | 0.8% | 13.2hPa | 2.6V | 00:00:00 | 00:00:00 | 00:00:00 | |
| PG1ADW-2 | 2026-09-02 00:51:23 | 49.03369 | 21.24336 | 107° | 18km/h | 29672m | 5.6m/s | 0°C | 0% | 0hPa | 2.6V | 00:00:00 | 00:00:00 | 00:00:00 | |
| SQ9EZE-13 | 2026-09-02 00:51:05 | 49.03380 | 21.24242 | 84° | 11km/h | 29580m | 5.3m/s | -43.3°C | 0.7% | 13.5hPa | 2.6V | 00:00:00 | 00:00:00 | 00:00:00 | |
| PG1ADW-2 | 2026-09-02 00:51:03 | 49.03382 | 21.24227 | 116° | 22km/h | 29561m | 5.8m/s | 0°C | 0% | 0hPa | 2.6V | 00:00:00 | 01:50:44 | 00:00:00 | |
| LZ4TU-5 | 2026-09-02 00:50:59 | 49.03389 | 21.24209 | 120° | 16km/h | 29543m | 6.9m/s | 0°C | 0% | 0hPa | 2.6V | 00:00:00 | 00:00:00 | 00:00:00 | |
| SQ9EZE-13 | 2026-09-02 00:50:49 | 49.03410 | 21.24146 | 71° | 13km/h | 29486m | 5.2m/s | -43.5°C | 0.8% | 13.6hPa | 2.6V | 00:00:00 | 00:00:00 | 00:00:00 | |
| SQ9EZE-13 | 2026-09-02 00:50:34 | 49.03427 | 21.24043 | 70° | 24km/h | 29399m | 6.8m/s | -43.6°C | 0.7% | 13.8hPa | 2.6V | 00:00:00 | 00:00:00 | 00:00:00 | |
| OE5DRO-10 | 2026-09-02 00:50:24 | 49.03435 | 21.23950 | 95° | 22km/h | 29335m | 5.6m/s | -43.7°C | 2.8% | 13.9hPa | 2.6V | 00:00:00 | 00:00:00 | 00:00:00 | |
| SQ9EZE-13 | 2026-09-02 00:50:19 | 49.03434 | 21.23928 | 90° | 22km/h | 29311m | 5.9m/s | -44.0°C | 0.7% | 14.0hPa | 2.6V | 00:00:00 | 00:00:00 | 00:00:00 | |
| OE5DRO-10 | 2026-09-02 00:50:05 | 49.03447 | 21.23796 | 84° | 26km/h | 29222m | 5.7m/s | -44.1°C | 2.8% | 14.1hPa | 2.6V | 00:00:00 | 00:00:00 | 00:00:00 | |
| SQ9EZE-13 | 2026-09-02 00:50:03 | 49.03447 | 21.23785 | 95° | 29km/h | 29217m | 4.9m/s | -44.2°C | 0.7% | 14.2hPa | 2.6V | 00:00:00 | 00:00:00 | 00:00:00 | |
| PG1ADW-2 | 2026-09-02 00:49:50 | 49.03444 | 21.23675 | 53° | 22km/h | 29134m | 6.3m/s | 0°C | 0% | 0hPa | 2.6V | 00:00:00 | 00:00:00 | 00:00:00 | |
| SQ9EZE-14 | 2026-09-02 00:49:48 | 49.03437 | 21.23658 | 71° | 27km/h | 29122m | 5.4m/s | -44.6°C | 0.8% | 14.4hPa | 2.6V | 00:00:00 | 00:00:00 | 00:00:00 | |
| OE5DRO-10 | 2026-09-02 00:49:46 | 49.03434 | 21.23640 | 79° | 24km/h | 29111m | 6.9m/s | -44.7°C | 2.8% | 14.4hPa | 2.6V | 00:00:00 | 00:00:00 | 00:00:00 | |
| SQ9EZE-13 | 2026-09-02 00:49:32 | 49.03419 | 21.23548 | 58° | 33km/h | 29032m | 4.9m/s | -45.2°C | 0.8% | 14.6hPa | 2.5V | 00:00:00 | 00:00:00 | 00:00:00 | |
| OE5DRO-10 | 2026-09-02 00:49:27 | 49.03409 | 21.23525 | 198° | 20km/h | 28997m | 5.0m/s | -45.4°C | 2.9% | 14.6hPa | 2.5V | 00:00:00 | 00:00:00 | 00:00:00 | |
| SQ9EZE-13 | 2026-09-02 00:49:16 | 49.03387 | 21.23452 | 72° | 26km/h | 28940m | 6.4m/s | -45.9°C | 0.8% | 14.8hPa | 2.5V | 00:00:00 | 00:00:00 | 00:00:00 | |
| OE5DRO-10 | 2026-09-02 00:49:08 | 49.03376 | 21.23404 | 66° | 15km/h | 28886m | 5.9m/s | -46.0°C | 3.0% | 14.9hPa | 2.5V | 00:00:00 | 00:00:00 | 00:00:00 | |
| SQ9EZE-13 | 2026-09-02 00:49:00 | 49.03360 | 21.23369 | 61° | 13km/h | 28847m | 6.5m/s | -46.4°C | 0.8% | 15.0hPa | 2.5V | 00:00:00 | 00:00:00 | 00:00:00 | |
| LZ4TU-5 | 2026-09-02 00:48:53 | 49.03353 | 21.23343 | 37° | 7km/h | 28806m | 5.2m/s | 0°C | 0% | 0hPa | 2.5V | 00:00:00 | 00:00:00 | 00:00:00 | |
| LZ4TU-5 | 2026-09-02 00:48:49 | 49.03349 | 21.23326 | 78° | 16km/h | 28783m | 4.9m/s | 0°C | 0% | 0hPa | 2.5V | 00:00:00 | 00:00:00 | 00:00:00 | |
| OE5DRO-10 | 2026-09-02 00:48:48 | 49.03346 | 21.23314 | 51° | 18km/h | 28771m | 7.0m/s | -46.7°C | 3.1% | 15.1hPa | 2.5V | 00:00:00 | 00:00:00 | 00:00:00 | |
| SQ9EZE-13 | 2026-09-02 00:48:44 | 49.03334 | 21.23303 | 27° | 20km/h | 28753m | 5.2m/s | -46.8°C | 0.9% | 15.2hPa | 2.5V | 00:00:00 | 00:00:00 | 00:00:00 | |
| SQ9EZE-13 | 2026-09-02 00:48:30 | 49.03308 | 21.23244 | 11° | 15km/h | 28666m | 4.4m/s | -47.2°C | 0.9% | 15.4hPa | 2.5V | 00:00:00 | 00:00:00 | 00:00:00 | |
| HA6NAB-11 | 2026-09-02 00:48:17 | 49.03300 | 21.23206 | 0° | 0km/h | 28597m | 6.8m/s | -47.2°C | 0.9% | 15.6hPa | 2.5V | 00:00:00 | 00:00:00 | 00:00:00 | |
| SQ9EZE-13 | 2026-09-02 00:48:13 | 49.03303 | 21.23202 | 99° | 7km/h | 28574m | 6.0m/s | -47.3°C | 0.9% | 15.6hPa | 2.5V | 00:00:00 | 00:00:00 | 00:00:00 | |
| SQ9EZE-13 | 2026-09-02 00:47:58 | 49.03309 | 21.23150 | 60° | 11km/h | 28491m | 6.5m/s | -47.2°C | 0.9% | 15.9hPa | 2.5V | 00:00:00 | 00:00:00 | 00:00:00 | |
| SQ9EZE-13 | 2026-09-02 00:47:43 | 49.03301 | 21.23079 | 79° | 13km/h | 28406m | 4.8m/s | -47.3°C | 0.9% | 16.0hPa | 2.5V | 00:00:00 | 00:00:00 | 00:00:00 | |
| SQ9EZE-13 | 2026-09-02 00:47:27 | 49.03300 | 21.22988 | 104° | 16km/h | 28317m | 5.8m/s | -47.6°C | 0.9% | 16.3hPa | 2.5V | 00:00:00 | 00:00:00 | 00:00:00 | |
| LZ4TU-5 | 2026-09-02 00:47:14 | 49.03301 | 21.22893 | 71° | 16km/h | 28237m | 5.6m/s | 0°C | 0% | 0hPa | 2.5V | 00:00:00 | 00:00:00 | 00:00:00 | |
| SQ9EZE-13 | 2026-09-02 00:47:11 | 49.03299 | 21.22879 | 76° | 24km/h | 28226m | 5.9m/s | -48.0°C | 0.9% | 16.5hPa | 2.5V | 00:00:00 | 00:00:00 | 00:00:00 | |
| LZ4TU-5 | 2026-09-02 00:47:08 | 49.03293 | 21.22849 | 77° | 29km/h | 28208m | 4.8m/s | 0°C | 0% | 0hPa | 2.5V | 00:00:00 | 00:00:00 | 00:00:00 | |
| SQ9EZE-13 | 2026-09-02 00:46:55 | 49.03252 | 21.22764 | 65° | 40km/h | 28133m | 6.9m/s | -48.5°C | 1.0% | 16.7hPa | 2.5V | 00:00:00 | 00:00:00 | 00:00:00 | |
| OE5DRO-10 | 2026-09-02 00:46:39 | 49.03187 | 21.22656 | 52° | 16km/h | 28038m | 6.8m/s | -48.5°C | 3.4% | 16.9hPa | 2.5V | 00:00:00 | 00:00:00 | 08:30:00 | |
| SQ9EZE-13 | 2026-09-02 00:46:24 | 49.03139 | 21.22616 | 3° | 15km/h | 27958m | 4.7m/s | -48.5°C | 1.0% | 17.2hPa | 2.5V | 00:00:00 | 00:00:00 | 00:00:00 | |
| OE5DRO-10 | 2026-09-02 00:46:20 | 49.03116 | 21.22617 | 350° | 11km/h | 27929m | 6.2m/s | -48.5°C | 3.4% | 17.2hPa | 2.5V | 00:00:00 | 00:00:00 | 00:00:00 | |
| SQ9EZE-13 | 2026-09-02 00:46:08 | 49.03101 | 21.22615 | 344° | 13km/h | 27867m | 5.7m/s | -48.7°C | 1.0% | 17.4hPa | 2.5V | 00:00:00 | 00:00:00 | 00:00:00 | |
| OE5DRO-10 | 2026-09-02 00:46:01 | 49.03074 | 21.22638 | 26° | 9km/h | 27821m | 6.0m/s | -48.8°C | 3.5% | 17.5hPa | 2.5V | 00:00:00 | 00:00:00 | 00:00:00 | |
| SQ9EZE-13 | 2026-09-02 00:45:52 | 49.03061 | 21.22637 | 320° | 13km/h | 27773m | 6.5m/s | -48.9°C | 1.0% | 17.7hPa | 2.5V | 00:00:00 | 00:00:00 | 00:00:00 | |
| OE5DRO-10 | 2026-09-02 00:45:42 | 49.03049 | 21.22627 | 77° | 9km/h | 27710m | 6.1m/s | -48.9°C | 3.5% | 17.8hPa | 2.5V | 00:00:00 | 00:00:00 | 00:00:00 | |
| SQ9EZE-13 | 2026-09-02 00:45:37 | 49.03043 | 21.22626 | 347° | 13km/h | 27686m | 6.5m/s | -48.9°C | 1.0% | 17.9hPa | 2.7V | 00:00:00 | 00:00:00 | 00:00:00 | |
| PG1ADW-2 | 2026-09-02 00:45:36 | 49.03036 | 21.22626 | 8° | 13km/h | 27675m | 4.8m/s | 0°C | 0% | 0hPa | 2.7V | 00:00:00 | 00:00:00 | 00:00:00 | |
| OE5DRO-10 | 2026-09-02 00:45:23 | 49.03024 | 21.22589 | 45° | 16km/h | 27599m | 6.0m/s | -48.7°C | 3.4% | 18.1hPa | 2.7V | 00:00:00 | 00:00:00 | 00:00:00 | |
| SQ9EZE-13 | 2026-09-02 00:45:21 | 49.03021 | 21.22585 | 38° | 18km/h | 27592m | 6.9m/s | -48.7°C | 0.9% | 18.2hPa | 2.7V | 00:00:00 | 00:00:00 | 00:00:00 | |
| PG1ADW-2 | 2026-09-02 00:45:13 | 49.03005 | 21.22561 | 45° | 16km/h | 27540m | 6.2m/s | 0°C | 0% | 0hPa | 2.7V | 00:00:00 | 00:00:00 | 00:00:00 | |
| SQ9EZE-14 | 2026-09-02 00:45:07 | 49.02990 | 21.22533 | 58° | 20km/h | 27511m | 5.2m/s | -48.6°C | 0.9% | 18.4hPa | 2.7V | 00:00:00 | 00:00:00 | 00:00:00 | |
| SQ9EZE-13 | 2026-09-02 00:45:05 | 49.02983 | 21.22519 | 50° | 24km/h | 27499m | 6.0m/s | -48.6°C | 0.9% | 18.4hPa | 2.7V | 00:00:00 | 00:00:00 | 00:00:00 | |
| OE5DRO-10 | 2026-09-02 00:45:04 | 49.02976 | 21.22508 | 44° | 15km/h | 27487m | 6.0m/s | 0°C | 0% | 0hPa | 2.7V | 00:00:00 | 00:00:00 | 00:00:00 | |
| PG1ADW-2 | 2026-09-02 00:44:53 | 49.02951 | 21.22479 | 35° | 11km/h | 27420m | 5.5m/s | 0°C | 0% | 0hPa | 2.7V | 00:00:00 | 01:44:34 | 00:00:00 | |
| SQ9EZE-14 | 2026-09-02 00:44:51 | 49.02948 | 21.22476 | 33° | 16km/h | 27414m | 7.0m/s | -48.7°C | 1.0% | 18.7hPa | 2.7V | 00:00:00 | 00:00:00 | 00:00:00 | |
| SQ9EZE-13 | 2026-09-02 00:44:49 | 49.02940 | 21.22470 | 19° | 16km/h | 27402m | 5.2m/s | -48.7°C | 1.0% | 18.7hPa | 2.7V | 00:00:00 | 00:00:00 | 00:00:00 | |
| OE5DRO-10 | 2026-09-02 00:44:44 | 49.02927 | 21.22477 | 346° | 11km/h | 27365m | 6.3m/s | 0°C | 0% | 0hPa | 2.7V | 00:00:00 | 00:00:00 | 00:00:00 | |
| SQ9EZE-13 | 2026-09-02 00:44:34 | 49.02909 | 21.22492 | 323° | 18km/h | 27313m | 4.5m/s | -48.9°C | 1.0% | 19.0hPa | 2.7V | 00:00:00 | 00:00:00 | 00:00:00 | |
| PG1ADW-2 | 2026-09-02 00:44:33 | 49.02902 | 21.22503 | 304° | 16km/h | 27301m | 7.0m/s | 0°C | 0% | 0hPa | 2.7V | 00:00:00 | 00:00:00 | 00:00:00 | |
| OE5DRO-10 | 2026-09-02 00:44:24 | 49.02884 | 21.22545 | 283° | 11km/h | 27247m | 5.3m/s | 0°C | 0% | 0hPa | 2.7V | 00:00:00 | 00:00:00 | 00:00:00 | |
| SQ9EZE-13 | 2026-09-02 00:44:19 | 49.02879 | 21.22557 | 301° | 13km/h | 27225m | 4.3m/s | -49.2°C | 1.0% | 19.2hPa | 2.7V | 00:00:00 | 00:00:00 | 00:00:00 | |
| PG1ADW-2 | 2026-09-02 00:44:13 | 49.02873 | 21.22601 | 315° | 11km/h | 27183m | 5.2m/s | 0°C | 0% | 0hPa | 2.7V | 00:00:00 | 00:00:00 | 00:00:00 | |
| SQ9EZE-13 | 2026-09-02 00:44:03 | 49.02887 | 21.22619 | 237° | 22km/h | 27132m | 6.3m/s | -49.2°C | 1.0% | 19.5hPa | 2.7V | 00:00:00 | 00:00:00 | 00:00:00 | |
| OE5DRO-10 | 2026-09-02 00:43:52 | 49.02919 | 21.22683 | 230° | 18km/h | 27064m | 5.7m/s | 0°C | 0% | 0hPa | 2.7V | 00:00:00 | 00:00:00 | 00:00:00 | |
| SQ9EZE-13 | 2026-09-02 00:43:48 | 49.02928 | 21.22703 | 237° | 26km/h | 27047m | 6.3m/s | -49.0°C | 1.0% | 19.7hPa | 2.7V | 00:00:00 | 00:00:00 | 00:00:00 | |
| OE5DRO-10 | 2026-09-02 00:43:31 | 49.03002 | 21.22747 | 172° | 15km/h | 26948m | 4.3m/s | 0°C | 0% | 0hPa | 2.7V | 00:00:00 | 00:00:00 | 08:30:00 | |
| SQ9EZE-13 | 2026-09-02 00:43:16 | 49.03041 | 21.22729 | 130° | 13km/h | 26871m | 5.9m/s | -48.7°C | 1.0% | 20.3hPa | 2.7V | 00:00:00 | 00:00:00 | 00:00:00 | |
| OE5DRO-10 | 2026-09-02 00:43:12 | 49.03048 | 21.22696 | 79° | 11km/h | 26843m | 5.8m/s | 0°C | 0% | 0hPa | 2.7V | 00:00:00 | 00:00:00 | 00:00:00 | |
| SQ9EZE-13 | 2026-09-02 00:43:00 | 49.03061 | 21.22668 | 160° | 15km/h | 26782m | 5.0m/s | -48.4°C | 0.9% | 20.6hPa | 2.7V | 00:00:00 | 00:00:00 | 00:00:00 | |
| OE5DRO-10 | 2026-09-02 00:42:53 | 49.03071 | 21.22640 | 143° | 9km/h | 26739m | 4.6m/s | 0°C | 0% | 0hPa | 2.7V | 00:00:00 | 00:00:00 | 00:00:00 | |
| SQ9EZE-14 | 2026-09-02 00:42:50 | 49.03076 | 21.22636 | 166° | 9km/h | 26728m | 6.2m/s | -48.7°C | 1.0% | 20.7hPa | 2.7V | 00:00:00 | 00:00:00 | 00:00:00 | |
| SQ9EZE-13 | 2026-09-02 00:42:44 | 49.03093 | 21.22648 | 211° | 11km/h | 26695m | 6.4m/s | -48.8°C | 1.0% | 20.8hPa | 2.7V | 00:00:00 | 00:00:00 | 00:00:00 | |
| OE5DRO-10 | 2026-09-02 00:42:34 | 49.03104 | 21.22649 | 239° | 9km/h | 26633m | 6.7m/s | 0°C | 0% | 0hPa | 2.7V | 00:00:00 | 00:00:00 | 00:00:00 | |
| SQ9EZE-13 | 2026-09-02 00:42:29 | 49.03110 | 21.22657 | 206° | 4km/h | 26610m | 5.8m/s | -48.9°C | 1.0% | 21.1hPa | 2.7V | 00:00:00 | 00:00:00 | 00:00:00 | |
| SQ9EZE-14 | 2026-09-02 00:42:19 | 49.03126 | 21.22629 | 0° | 0km/h | 26558m | 4.6m/s | -48.7°C | 1.0% | 21.3hPa | 2.7V | 00:00:00 | 00:00:00 | 00:00:00 | |
| OE5DRO-10 | 2026-09-02 00:42:15 | 49.03134 | 21.22630 | 136° | 11km/h | 26529m | 6.3m/s | 0°C | 0% | 0hPa | 2.7V | 00:00:00 | 00:00:00 | 00:00:00 | |
| SQ9EZE-13 | 2026-09-02 00:42:13 | 49.03135 | 21.22627 | 98° | 9km/h | 26524m | 5.4m/s | -48.7°C | 0.9% | 21.4hPa | 2.7V | 00:00:00 | 00:00:00 | 00:00:00 | |
| SQ9EZE-13 | 2026-09-02 00:41:57 | 49.03131 | 21.22584 | 16° | 13km/h | 26437m | 5.7m/s | -48.9°C | 1.0% | 21.7hPa | 2.7V | 00:00:00 | 00:00:00 | 00:00:00 | |
| OE5DRO-10 | 2026-09-02 00:41:56 | 49.03124 | 21.22579 | 38° | 13km/h | 26426m | 6.6m/s | 0°C | 0% | 0hPa | 2.7V | 00:00:00 | 00:00:00 | 00:00:00 | |
| SQ9EZE-13 | 2026-09-02 00:41:41 | 49.03092 | 21.22565 | 25° | 13km/h | 26347m | 6.9m/s | -48.9°C | 1.0% | 22.0hPa | 2.7V | 00:00:00 | 00:00:00 | 00:00:00 | |
| OE5DRO-10 | 2026-09-02 00:41:35 | 49.03063 | 21.22562 | 324° | 11km/h | 26309m | 3.9m/s | 0°C | 0% | 0hPa | 2.7V | 00:00:00 | 00:00:00 | 00:00:00 | |
| SQ9EZE-13 | 2026-09-02 00:41:25 | 49.03055 | 21.22574 | 346° | 20km/h | 26262m | 6.2m/s | -49.0°C | 0.9% | 22.3hPa | 2.7V | 00:00:00 | 00:00:00 | 00:00:00 | |
| OE5DRO-10 | 2026-09-02 00:41:16 | 49.03032 | 21.22628 | 271° | 13km/h | 26206m | 6.2m/s | 0°C | 0% | 0hPa | 2.7V | 00:00:00 | 00:00:00 | 00:00:00 | |
| SQ9EZE-13 | 2026-09-02 00:41:09 | 49.03030 | 21.22663 | 298° | 16km/h | 26173m | 5.5m/s | -49.4°C | 1.0% | 22.6hPa | 2.7V | 00:00:00 | 00:00:00 | 00:00:00 | |
| OE5DRO-10 | 2026-09-02 00:40:56 | 49.03027 | 21.22738 | 236° | 9km/h | 26092m | 5.2m/s | 0°C | 0% | 0hPa | 2.7V | 00:00:00 | 00:00:00 | 00:00:00 | |
| SQ9EZE-13 | 2026-09-02 00:40:54 | 49.03028 | 21.22742 | 243° | 13km/h | 26086m | 5.4m/s | -49.3°C | 1.0% | 22.8hPa | 2.7V | 00:00:00 | 00:00:00 | 00:00:00 | |
| SQ9EZE-13 | 2026-09-02 00:40:38 | 49.03034 | 21.22773 | 235° | 9km/h | 25993m | 5.3m/s | -49.4°C | 1.0% | 23.2hPa | 2.7V | 00:00:00 | 00:00:00 | 00:00:00 | |
| OE5DRO-10 | 2026-09-02 00:40:31 | 49.03031 | 21.22774 | 168° | 11km/h | 25946m | 5.4m/s | 0°C | 0% | 0hPa | 2.7V | 00:00:00 | 00:00:00 | 00:00:00 | |
| SQ9EZE-13 | 2026-09-02 00:40:23 | 49.03050 | 21.22766 | 274° | 2km/h | 25906m | 4.2m/s | -49.3°C | 1.0% | 23.5hPa | 2.7V | 00:00:00 | 00:00:00 | 00:00:00 | |
| SQ9EZE-14 | 2026-09-02 00:40:11 | 49.03034 | 21.22746 | 124° | 11km/h | 25837m | 6.0m/s | -49.7°C | 1.0% | 23.7hPa | 2.7V | 00:00:00 | 00:00:00 | 00:00:00 | |
| SQ9EZE-13 | 2026-09-02 00:40:08 | 49.03035 | 21.22740 | 29° | 7km/h | 25821m | 4.8m/s | -49.7°C | 1.0% | 23.8hPa | 2.7V | 00:00:00 | 00:00:00 | 00:00:00 | |
| SQ9EZE-14 | 2026-09-02 00:39:55 | 49.03002 | 21.22720 | 341° | 11km/h | 25744m | 5.5m/s | -49.6°C | 1.0% | 24.1hPa | 2.7V | 00:00:00 | 00:00:00 | 00:00:00 | |
| SQ9EZE-13 | 2026-09-02 00:39:38 | 49.02969 | 21.22724 | 348° | 9km/h | 25645m | 4.5m/s | -49.5°C | 1.0% | 24.5hPa | 2.7V | 00:00:00 | 00:00:00 | 00:00:00 | |
| SQ9EZE-13 | 2026-09-02 00:39:22 | 49.02974 | 21.22747 | 243° | 9km/h | 25553m | 6.7m/s | -50.0°C | 1.0% | 24.8hPa | 2.7V | 00:00:00 | 00:00:00 | 00:00:00 | |
| SQ9EZE-13 | 2026-09-02 00:39:06 | 49.03004 | 21.22789 | 203° | 16km/h | 25464m | 5.8m/s | -50.7°C | 1.1% | 25.1hPa | 2.7V | 00:00:00 | 00:00:00 | 00:00:00 | |
| SQ9EZE-13 | 2026-09-02 00:38:37 | 49.03107 | 21.22869 | 190° | 13km/h | 25296m | 5.3m/s | -50.8°C | 1.1% | 25.8hPa | 2.7V | 00:00:00 | 00:00:00 | 00:00:00 | |
| SQ9EZE-13 | 2026-09-02 00:38:21 | 49.03139 | 21.22831 | 159° | 9km/h | 25214m | 5.0m/s | -51.0°C | 1.1% | 26.1hPa | 2.7V | 00:00:00 | 00:00:00 | 00:00:00 | |
| SQ9EZE-13 | 2026-09-02 00:38:06 | 49.03162 | 21.22752 | 101° | 16km/h | 25131m | 6.2m/s | -50.9°C | 1.1% | 26.5hPa | 2.7V | 00:00:00 | 00:00:00 | 00:00:00 | |
| SQ9EZE-13 | 2026-09-02 00:37:50 | 49.03164 | 21.22677 | 118° | 22km/h | 25050m | 4.5m/s | -50.8°C | 1.1% | 26.8hPa | 2.7V | 00:00:00 | 00:00:00 | 00:00:00 | |
| SQ9EZE-14 | 2026-09-02 00:37:47 | 49.03169 | 21.22660 | 112° | 9km/h | 25034m | 5.1m/s | -50.7°C | 1.1% | 26.9hPa | 2.7V | 00:00:00 | 00:00:00 | 00:00:00 | |
| SQ9EZE-13 | 2026-09-02 00:37:35 | 49.03185 | 21.22628 | 143° | 16km/h | 24969m | 4.9m/s | -50.7°C | 1.0% | 27.2hPa | 2.7V | 00:00:00 | 00:00:00 | 00:00:00 | |
| SQ9EZE-14 | 2026-09-02 00:37:32 | 49.03192 | 21.22617 | 118° | 7km/h | 24953m | 5.5m/s | -50.7°C | 1.0% | 27.2hPa | 2.7V | 00:00:00 | 00:00:00 | 00:00:00 | |
| SQ9EZE-13 | 2026-09-02 00:37:19 | 49.03212 | 21.22616 | 179° | 13km/h | 24888m | 3.9m/s | -50.9°C | 1.0% | 27.5hPa | 2.7V | 00:00:00 | 00:00:00 | 00:00:00 | |
| SQ9EZE-13 | 2026-09-02 00:37:03 | 49.03279 | 21.22690 | 208° | 20km/h | 24805m | 6.5m/s | -51.2°C | 1.1% | 27.8hPa | 2.7V | 00:00:00 | 00:00:00 | 00:00:00 | |
| SQ9EZE-13 | 2026-09-02 00:36:48 | 49.03373 | 21.22746 | 198° | 22km/h | 24724m | 4.7m/s | -51.2°C | 1.1% | 28.2hPa | 2.7V | 00:00:00 | 00:00:00 | 00:00:00 | |
| SQ9EZE-13 | 2026-09-02 00:36:33 | 49.03463 | 21.22742 | 183° | 27km/h | 24644m | 4.8m/s | -51.4°C | 1.1% | 28.5hPa | 2.7V | 00:00:00 | 00:00:00 | 00:00:00 | |
| SQ9EZE-13 | 2026-09-02 00:36:17 | 49.03551 | 21.22672 | 135° | 22km/h | 24556m | 5.4m/s | -51.7°C | 1.1% | 28.9hPa | 2.7V | 00:00:00 | 00:00:00 | 00:00:00 | |
| SQ9EZE-13 | 2026-09-02 00:36:01 | 49.03608 | 21.22552 | 122° | 16km/h | 24467m | 5.7m/s | -51.7°C | 1.1% | 29.3hPa | 2.7V | 00:00:00 | 00:00:00 | 00:00:00 | |
| SQ9EZE-13 | 2026-09-02 00:35:45 | 49.03625 | 21.22412 | 77° | 20km/h | 24376m | 6.5m/s | -51.6°C | 1.1% | 29.7hPa | 2.7V | 00:00:00 | 00:00:00 | 00:00:00 | |
| SQ9EZE-14 | 2026-09-02 00:35:35 | 49.03627 | 21.22319 | 100° | 24km/h | 24320m | 6.1m/s | -51.7°C | 1.1% | 30.0hPa | 2.7V | 00:00:00 | 00:00:00 | 00:00:00 | |
| SQ9EZE-13 | 2026-09-02 00:35:29 | 49.03633 | 21.22274 | 109° | 16km/h | 24286m | 6.1m/s | -51.9°C | 1.2% | 30.1hPa | 2.7V | 00:00:00 | 00:00:00 | 00:00:00 | |
| SQ9EZE-14 | 2026-09-02 00:35:20 | 49.03650 | 21.22205 | 118° | 24km/h | 24237m | 4.9m/s | -51.8°C | 1.1% | 30.4hPa | 2.7V | 00:00:00 | 00:00:00 | 00:00:00 | |
| SQ9EZE-13 | 2026-09-02 00:35:13 | 49.03649 | 21.22155 | 53° | 15km/h | 24198m | 5.1m/s | -51.8°C | 1.1% | 30.6hPa | 2.7V | 00:00:00 | 00:00:00 | 00:00:00 | |
| SQ9EZE-14 | 2026-09-02 00:35:05 | 49.03634 | 21.22107 | 86° | 16km/h | 24153m | 6.1m/s | -52.3°C | 1.1% | 30.8hPa | 2.7V | 00:00:00 | 00:00:00 | 00:00:00 | |
| SQ9EZE-13 | 2026-09-02 00:34:58 | 49.03622 | 21.22070 | 27° | 15km/h | 24116m | 4.8m/s | -52.4°C | 1.1% | 31.0hPa | 2.7V | 00:00:00 | 00:00:00 | 00:00:00 | |
| SQ9EZE-13 | 2026-09-02 00:34:43 | 49.03568 | 21.22034 | 66° | 15km/h | 24030m | 5.3m/s | -52.3°C | 1.1% | 31.4hPa | 2.7V | 00:00:00 | 00:00:00 | 00:00:00 | |
| SQ9EZE-13 | 2026-09-02 00:34:28 | 49.03542 | 21.21995 | 79° | 13km/h | 23948m | 6.1m/s | -52.5°C | 1.2% | 31.8hPa | 2.7V | 00:00:00 | 00:00:00 | 00:00:00 | |
| SQ9EZE-13 | 2026-09-02 00:34:12 | 49.03527 | 21.21959 | 116° | 5km/h | 23861m | 6.1m/s | -52.5°C | 1.2% | 32.2hPa | 2.7V | 00:00:00 | 00:00:00 | 00:00:00 | |
| SQ9EZE-13 | 2026-09-02 00:33:57 | 49.03538 | 21.21928 | 124° | 11km/h | 23777m | 4.6m/s | -52.3°C | 1.1% | 32.6hPa | 2.7V | 00:00:00 | 00:00:00 | 00:00:00 | |
| SQ9EZE-13 | 2026-09-02 00:33:41 | 49.03538 | 21.21869 | 66° | 15km/h | 23690m | 5.1m/s | -52.8°C | 1.2% | 33.0hPa | 2.7V | 00:00:00 | 00:00:00 | 00:00:00 | |
| SQ9EZE-13 | 2026-09-02 00:33:25 | 49.03484 | 21.21824 | 12° | 20km/h | 23608m | 5.9m/s | -53.2°C | 1.2% | 33.5hPa | 2.7V | 00:00:00 | 00:00:00 | 00:00:00 | |
| SQ9EZE-13 | 2026-09-02 00:33:09 | 49.03415 | 21.21833 | 2° | 15km/h | 23523m | 6.2m/s | -53.2°C | 1.2% | 33.9hPa | 2.7V | 00:00:00 | 00:00:00 | 00:00:00 | |
| SQ9EZE-14 | 2026-09-02 00:33:01 | 49.03399 | 21.21835 | 7° | 7km/h | 23482m | 4.9m/s | -53.5°C | 1.2% | 34.1hPa | 2.7V | 00:00:00 | 00:00:00 | 00:00:00 | |
| SQ9EZE-13 | 2026-09-02 00:32:53 | 49.03373 | 21.21849 | 354° | 9km/h | 23444m | 4.8m/s | -53.6°C | 1.2% | 34.4hPa | 2.7V | 00:00:00 | 00:00:00 | 00:00:00 | |
| SQ9EZE-14 | 2026-09-02 00:32:45 | 49.03355 | 21.21852 | 347° | 13km/h | 23403m | 6.1m/s | -54.0°C | 1.2% | 34.6hPa | 2.7V | 00:00:00 | 00:00:00 | 00:00:00 | |
| SQ9EZE-13 | 2026-09-02 00:32:37 | 49.03341 | 21.21869 | 262° | 7km/h | 23364m | 5.9m/s | -54.0°C | 1.2% | 34.8hPa | 2.7V | 00:00:00 | 00:00:00 | 00:00:00 | |
| SQ9EZE-13 | 2026-09-02 00:32:21 | 49.03346 | 21.21887 | 175° | 9km/h | 23283m | 6.1m/s | -54.0°C | 1.2% | 35.2hPa | 2.7V | 00:00:00 | 00:00:00 | 00:00:00 | |
| SQ9EZE-13 | 2026-09-02 00:32:06 | 49.03345 | 21.21882 | 140° | 7km/h | 23205m | 3.3m/s | -53.9°C | 1.3% | 35.6hPa | 2.7V | 00:00:00 | 00:00:00 | 00:00:00 | |
| SQ9EZE-13 | 2026-09-02 00:31:51 | 49.03330 | 21.21863 | 14° | 5km/h | 23129m | 4.1m/s | -53.9°C | 1.3% | 36.1hPa | 2.7V | 00:00:00 | 00:00:00 | 00:00:00 | |
| SQ9EZE-13 | 2026-09-02 00:31:35 | 49.03297 | 21.21866 | 326° | 11km/h | 23052m | 5.7m/s | -53.9°C | 1.3% | 36.5hPa | 2.7V | 00:00:00 | 00:00:00 | 00:00:00 | |
| SQ9EZE-13 | 2026-09-02 00:31:19 | 49.03252 | 21.21895 | 331° | 11km/h | 22973m | 5.1m/s | -53.6°C | 1.3% | 37.0hPa | 2.7V | 00:00:00 | 00:00:00 | 00:00:00 | |
| SQ9EZE-13 | 2026-09-02 00:31:03 | 49.03229 | 21.21925 | 327° | 15km/h | 22891m | 4.8m/s | -53.4°C | 1.2% | 37.4hPa | 2.7V | 00:00:00 | 00:00:00 | 00:00:00 | |
| SQ9EZE-13 | 2026-09-02 00:30:47 | 49.03230 | 21.21972 | 252° | 15km/h | 22806m | 4.5m/s | -53.6°C | 1.2% | 37.9hPa | 2.7V | 00:00:00 | 00:00:00 | 00:00:00 | |
| SQ9EZE-14 | 2026-09-02 00:30:40 | 49.03247 | 21.21988 | 190° | 13km/h | 22771m | 5.3m/s | -53.6°C | 1.2% | 38.1hPa | 2.7V | 00:00:00 | 00:00:00 | 00:00:00 | |
| SQ9EZE-13 | 2026-09-02 00:30:31 | 49.03277 | 21.21995 | 187° | 16km/h | 22725m | 5.9m/s | -53.3°C | 1.2% | 38.4hPa | 2.7V | 00:00:00 | 00:00:00 | 00:00:00 | |
| SQ9EZE-14 | 2026-09-02 00:30:24 | 49.03309 | 21.21997 | 172° | 18km/h | 22688m | 4.4m/s | -53.3°C | 1.2% | 38.6hPa | 2.7V | 00:00:00 | 00:00:00 | 00:00:00 | |
| SQ9EZE-13 | 2026-09-02 00:30:16 | 49.03354 | 21.21990 | 183° | 16km/h | 22641m | 4.8m/s | -53.5°C | 1.2% | 38.9hPa | 2.7V | 00:00:00 | 00:00:00 | 00:00:00 | |
| SQ9EZE-13 | 2026-09-02 00:29:59 | 49.03440 | 21.21960 | 156° | 11km/h | 22560m | 4.9m/s | -53.4°C | 1.2% | 39.4hPa | 2.7V | 00:00:00 | 00:00:00 | 00:00:00 | |
| SQ9EZE-13 | 2026-09-02 00:29:44 | 49.03521 | 21.21893 | 149° | 15km/h | 22486m | 4.5m/s | -53.4°C | 1.2% | 39.9hPa | 2.7V | 00:00:00 | 00:00:00 | 00:00:00 | |
| SQ9EZE-13 | 2026-09-02 00:29:28 | 49.03581 | 21.21798 | 115° | 27km/h | 22402m | 5.1m/s | -53.2°C | 1.2% | 40.4hPa | 2.7V | 00:00:00 | 00:00:00 | 00:00:00 | |
| SQ9EZE-13 | 2026-09-02 00:29:13 | 49.03618 | 21.21656 | 90° | 35km/h | 22328m | 4.4m/s | -53.4°C | 1.3% | 40.9hPa | 2.7V | 00:00:00 | 00:00:00 | 00:00:00 | |
| SQ9EZE-13 | 2026-09-02 00:28:57 | 49.03633 | 21.21469 | 97° | 29km/h | 22247m | 5.1m/s | -53.2°C | 1.2% | 41.4hPa | 2.7V | 00:00:00 | 00:00:00 | 00:00:00 | |
| SQ9EZE-13 | 2026-09-02 00:28:41 | 49.03631 | 21.21317 | 64° | 26km/h | 22166m | 5.3m/s | -53.0°C | 1.2% | 41.9hPa | 2.7V | 00:00:00 | 00:00:00 | 00:00:00 | |
| SQ9EZE-13 | 2026-09-02 00:28:26 | 49.03609 | 21.21204 | 48° | 26km/h | 22089m | 4.5m/s | -52.8°C | 1.2% | 42.4hPa | 2.7V | 00:00:00 | 00:00:00 | 00:00:00 | |
| SQ9EZE-14 | 2026-09-02 00:28:16 | 49.03585 | 21.21137 | 65° | 24km/h | 22038m | 4.9m/s | -53.1°C | 1.2% | 42.7hPa | 2.7V | 00:00:00 | 00:00:00 | 00:00:00 | |
| SQ9EZE-13 | 2026-09-02 00:28:10 | 49.03568 | 21.21076 | 69° | 24km/h | 22007m | 5.0m/s | -53.0°C | 1.2% | 43.0hPa | 2.7V | 00:00:00 | 00:00:00 | 00:00:00 | |
| SQ9EZE-14 | 2026-09-02 00:28:00 | 49.03529 | 21.21018 | 53° | 24km/h | 21957m | 5.7m/s | -52.8°C | 1.2% | 43.3hPa | 2.7V | 00:00:00 | 00:00:00 | 00:00:00 | |
| SQ9EZE-13 | 2026-09-02 00:27:54 | 49.03519 | 21.20969 | 78° | 22km/h | 21925m | 5.9m/s | -52.7°C | 1.2% | 43.5hPa | 2.7V | 00:00:00 | 00:00:00 | 00:00:00 | |
| SQ9EZE-13 | 2026-09-02 00:27:38 | 49.03482 | 21.20892 | 72° | 11km/h | 21844m | 5.6m/s | -53.0°C | 1.2% | 44.0hPa | 2.7V | 00:00:00 | 00:00:00 | 00:00:00 | |
| SQ9EZE-13 | 2026-09-02 00:27:23 | 49.03443 | 21.20854 | 17° | 15km/h | 21767m | 4.4m/s | -53.5°C | 1.2% | 44.6hPa | 2.7V | 00:00:00 | 00:00:00 | 00:00:00 | |
| SQ9EZE-13 | 2026-09-02 00:27:08 | 49.03400 | 21.20856 | 21° | 7km/h | 21692m | 5.2m/s | -53.6°C | 1.3% | 45.1hPa | 2.7V | 00:00:00 | 00:00:00 | 00:00:00 | |
| SQ9EZE-13 | 2026-09-02 00:26:52 | 49.03379 | 21.20812 | 72° | 13km/h | 21605m | 5.8m/s | -53.8°C | 1.2% | 45.7hPa | 2.7V | 00:00:00 | 00:00:00 | 00:00:00 | |
| SQ9EZE-13 | 2026-09-02 00:26:36 | 49.03361 | 21.20737 | 68° | 16km/h | 21520m | 5.7m/s | -53.5°C | 1.3% | 46.3hPa | 2.7V | 00:00:00 | 00:00:00 | 00:00:00 | |
| SQ9EZE-13 | 2026-09-02 00:26:20 | 49.03333 | 21.20653 | 71° | 24km/h | 21436m | 4.9m/s | -53.3°C | 1.3% | 46.9hPa | 2.7V | 00:00:00 | 00:00:00 | 00:00:00 | |
| SQ9EZE-13 | 2026-09-02 00:26:04 | 49.03313 | 21.20575 | 78° | 13km/h | 21352m | 4.2m/s | -53.0°C | 1.2% | 47.5hPa | 2.7V | 00:00:00 | 00:00:00 | 00:00:00 | |
| SQ9EZE-14 | 2026-09-02 00:25:55 | 49.03307 | 21.20537 | 36° | 5km/h | 21307m | 5.2m/s | -53.0°C | 1.3% | 47.8hPa | 2.7V | 00:00:00 | 00:00:00 | 00:00:00 | |
| SQ9EZE-13 | 2026-09-02 00:25:49 | 49.03294 | 21.20525 | 12° | 13km/h | 21277m | 5.5m/s | -52.9°C | 1.2% | 48.1hPa | 2.7V | 00:00:00 | 00:00:00 | 00:00:00 | |
| SQ9EZE-14 | 2026-09-02 00:25:40 | 49.03288 | 21.20515 | 52° | 9km/h | 21232m | 4.8m/s | -52.6°C | 1.2% | 48.4hPa | 2.7V | 00:00:00 | 00:00:00 | 00:00:00 | |
| SQ9EZE-13 | 2026-09-02 00:25:33 | 49.03275 | 21.20493 | 54° | 5km/h | 21196m | 5.4m/s | -52.7°C | 1.2% | 48.7hPa | 2.7V | 00:00:00 | 00:00:00 | 00:00:00 | |
| SQ9EZE-13 | 2026-09-02 00:25:18 | 49.03270 | 21.20432 | 78° | 20km/h | 21122m | 5.0m/s | -53.3°C | 1.2% | 49.3hPa | 2.7V | 00:00:00 | 00:00:00 | 00:00:00 | |
| HA6NAB-11 | 2026-09-02 00:25:17 | 49.03269 | 21.20424 | 80° | 20km/h | 21117m | 4.2m/s | -53.3°C | 1.3% | 49.3hPa | 2.7V | 00:00:00 | 00:00:00 | 00:00:00 | |
| SQ9EZE-13 | 2026-09-02 00:25:03 | 49.03241 | 21.20332 | 61° | 22km/h | 21047m | 5.9m/s | -53.5°C | 1.3% | 49.9hPa | 2.7V | 00:00:00 | 00:00:00 | 00:00:00 | |
| SQ9EZE-13 | 2026-09-02 00:24:48 | 49.03194 | 21.20220 | 69° | 18km/h | 20973m | 6.0m/s | -53.3°C | 1.3% | 50.4hPa | 2.7V | 00:00:00 | 00:00:00 | 00:00:00 | |
| SQ9EZE-13 | 2026-09-02 00:24:33 | 49.03158 | 21.20124 | 57° | 13km/h | 20893m | 4.7m/s | -53.0°C | 1.2% | 51.1hPa | 2.7V | 00:00:00 | 00:00:00 | 00:00:00 | |
| SQ9EZE-13 | 2026-09-02 00:24:16 | 49.03121 | 21.20073 | 360° | 7km/h | 20814m | 4.7m/s | -52.8°C | 1.2% | 51.7hPa | 2.7V | 00:00:00 | 00:00:00 | 00:00:00 | |
| SQ9EZE-13 | 2026-09-02 00:24:01 | 49.03086 | 21.20038 | 9° | 11km/h | 20741m | 2.8m/s | -52.9°C | 1.2% | 52.3hPa | 2.7V | 00:00:00 | 00:00:00 | 00:00:00 | |
| SQ9EZE-13 | 2026-09-02 00:23:45 | 49.03056 | 21.19960 | 74° | 13km/h | 20665m | 4.8m/s | -53.0°C | 1.2% | 52.9hPa | 2.7V | 00:00:00 | 00:00:00 | 00:00:00 | |
| SQ9EZE-14 | 2026-09-02 00:23:36 | 49.03041 | 21.19894 | 58° | 18km/h | 20620m | 4.2m/s | -53.4°C | 1.3% | 53.3hPa | 2.7V | 00:00:00 | 00:00:00 | 00:00:00 | |
| SQ9EZE-13 | 2026-09-02 00:23:30 | 49.03036 | 21.19865 | 85° | 18km/h | 20590m | 3.5m/s | -53.5°C | 1.3% | 53.5hPa | 2.7V | 00:00:00 | 00:00:00 | 00:00:00 | |
| HA6NAB-11 | 2026-09-02 00:23:27 | 49.03035 | 21.19837 | 87° | 29km/h | 20576m | 4.0m/s | -53.4°C | 1.3% | 53.6hPa | 2.7V | 00:00:00 | 00:00:00 | 00:00:00 | |
| HA6NAB-11 | 2026-09-02 00:23:22 | 49.03025 | 21.19784 | 69° | 27km/h | 20552m | 5.5m/s | -53.3°C | 1.2% | 53.8hPa | 2.7V | 00:00:00 | 00:00:00 | 00:00:00 | |
| SQ9EZE-14 | 2026-09-02 00:23:20 | 49.03021 | 21.19766 | 73° | 24km/h | 20542m | 4.2m/s | -53.3°C | 1.3% | 53.9hPa | 2.7V | 00:00:00 | 00:00:00 | 00:00:00 | |
| HA6NAB-11 | 2026-09-02 00:23:14 | 49.03004 | 21.19716 | 69° | 24km/h | 20513m | 4.8m/s | -53.2°C | 1.3% | 54.1hPa | 2.7V | 00:00:00 | 00:00:00 | 00:00:00 | |
| HA6NAB-11 | 2026-09-02 00:23:06 | 49.02978 | 21.19666 | 55° | 29km/h | 20477m | 4.7m/s | -53.8°C | 1.3% | 54.5hPa | 2.7V | 00:00:00 | 00:00:00 | 00:00:00 | |
| HA6NAB-11 | 2026-09-02 00:23:01 | 49.02959 | 21.19618 | 52° | 29km/h | 20453m | 5.2m/s | -53.8°C | 1.3% | 54.7hPa | 2.7V | 00:00:00 | 00:00:00 | 00:00:00 | |
| SQ9EZE-13 | 2026-09-02 00:22:58 | 49.02945 | 21.19596 | 41° | 24km/h | 20440m | 5.9m/s | -53.9°C | 1.3% | 54.8hPa | 2.7V | 00:00:00 | 00:00:00 | 00:00:00 | |
| HA6NAB-11 | 2026-09-02 00:22:55 | 49.02933 | 21.19584 | 28° | 18km/h | 20424m | 5.3m/s | -54.0°C | 1.3% | 54.9hPa | 2.7V | 00:00:00 | 00:00:00 | 00:00:00 | |
| HA6NAB-11 | 2026-09-02 00:22:48 | 49.02906 | 21.19548 | 50° | 22km/h | 20390m | 5.1m/s | -54.0°C | 1.3% | 55.2hPa | 2.7V | 00:00:00 | 00:00:00 | 00:00:00 | |
| HA6NAB-11 | 2026-09-02 00:22:43 | 49.02890 | 21.19523 | 31° | 15km/h | 20366m | 4.6m/s | -54.0°C | 1.3% | 55.4hPa | 2.7V | 00:00:00 | 00:00:00 | 00:00:00 | |
| SQ9EZE-13 | 2026-09-02 00:22:42 | 49.02886 | 21.19520 | 20° | 16km/h | 20361m | 5.4m/s | -54.0°C | 1.3% | 55.5hPa | 2.7V | 00:00:00 | 00:00:00 | 00:00:00 | |
| HA6NAB-11 | 2026-09-02 00:22:37 | 49.02866 | 21.19518 | 7° | 15km/h | 20337m | 4.7m/s | -54.0°C | 1.3% | 55.7hPa | 2.7V | 00:00:00 | 00:00:00 | 00:00:00 | |
| HA6NAB-11 | 2026-09-02 00:22:32 | 49.02846 | 21.19508 | 17° | 11km/h | 20308m | 4.2m/s | -53.9°C | 1.3% | 55.9hPa | 2.7V | 00:00:00 | 00:00:00 | 00:00:00 | |
| SQ9EZE-13 | 2026-09-02 00:22:27 | 49.02832 | 21.19506 | 351° | 13km/h | 20289m | 5.2m/s | -53.8°C | 1.3% | 56.1hPa | 2.7V | 00:00:00 | 00:00:00 | 00:00:00 | |
| HA6NAB-11 | 2026-09-02 00:22:26 | 49.02829 | 21.19507 | 341° | 11km/h | 20284m | 4.9m/s | -53.9°C | 1.3% | 56.1hPa | 2.7V | 00:00:00 | 00:00:00 | 00:00:00 | |
| HA6NAB-11 | 2026-09-02 00:22:20 | 49.02811 | 21.19507 | 9° | 11km/h | 20255m | 5.8m/s | -53.9°C | 1.3% | 56.3hPa | 2.7V | 00:00:00 | 00:00:00 | 00:00:00 | |
| HA6NAB-11 | 2026-09-02 00:22:14 | 49.02794 | 21.19505 | 346° | 11km/h | 20228m | 5.0m/s | -54.1°C | 1.3% | 56.6hPa | 2.7V | 00:00:00 | 00:00:00 | 00:00:00 | |
| SQ9EZE-13 | 2026-09-02 00:22:11 | 49.02788 | 21.19514 | 307° | 11km/h | 20213m | 4.3m/s | -54.2°C | 1.3% | 56.7hPa | 2.7V | 00:00:00 | 00:00:00 | 00:00:00 | |
| HA6NAB-11 | 2026-09-02 00:22:07 | 49.02777 | 21.19519 | 29° | 9km/h | 20188m | 5.1m/s | -54.6°C | 1.4% | 57.0hPa | 2.7V | 00:00:00 | 00:00:00 | 00:00:00 | |
| SQ9EZE-13 | 2026-09-02 00:21:55 | 49.02752 | 21.19469 | 41° | 7km/h | 20133m | 5.9m/s | -54.3°C | 1.3% | 57.4hPa | 2.7V | 00:00:00 | 00:00:00 | 00:00:00 | |
| SQ9EZE-13 | 2026-09-02 00:21:39 | 49.02722 | 21.19451 | 346° | 7km/h | 20052m | 5.0m/s | -53.9°C | 1.3% | 58.2hPa | 2.7V | 00:00:00 | 00:00:00 | 00:00:00 | |
| SQ9EZE-13 | 2026-09-02 00:21:24 | 49.02694 | 21.19461 | 294° | 5km/h | 19976m | 4.6m/s | -54.2°C | 1.3% | 58.9hPa | 2.7V | 00:00:00 | 00:00:00 | 00:00:00 | |
| SQ9EZE-14 | 2026-09-02 00:21:13 | 49.02699 | 21.19489 | 303° | 7km/h | 19920m | 5.2m/s | -54.1°C | 1.3% | 59.4hPa | 2.7V | 00:00:00 | 00:00:00 | 00:00:00 | |
| SQ9EZE-13 | 2026-09-02 00:21:08 | 49.02697 | 21.19495 | 154° | 4km/h | 19894m | 5.0m/s | -54.0°C | 1.3% | 59.6hPa | 2.7V | 00:00:00 | 00:00:00 | 00:00:00 | |
| SQ9EZE-14 | 2026-09-02 00:20:57 | 49.02705 | 21.19500 | 0° | 0km/h | 19839m | 5.0m/s | -53.8°C | 1.3% | 60.1hPa | 2.7V | 00:00:00 | 00:00:00 | 00:00:00 | |
| SQ9EZE-13 | 2026-09-02 00:20:52 | 49.02702 | 21.19491 | 86° | 5km/h | 19813m | 5.4m/s | -53.7°C | 1.3% | 60.4hPa | 2.7V | 00:00:00 | 00:00:00 | 00:00:00 | |
| SQ9EZE-13 | 2026-09-02 00:20:37 | 49.02713 | 21.19445 | 119° | 11km/h | 19739m | 6.4m/s | -53.6°C | 1.3% | 61.1hPa | 2.7V | 00:00:00 | 00:00:00 | 00:00:00 | |
| SQ9EZE-13 | 2026-09-02 00:20:21 | 49.02758 | 21.19381 | 136° | 26km/h | 19659m | 5.8m/s | -53.4°C | 1.3% | 61.9hPa | 2.7V | 00:00:00 | 00:00:00 | 00:00:00 | |
| HA6NAB-11 | 2026-09-02 00:20:18 | 49.02771 | 21.19356 | 118° | 29km/h | 19643m | 5.8m/s | -53.5°C | 1.3% | 62.0hPa | 2.7V | 00:00:00 | 00:00:00 | 00:00:00 | |
| HA6NAB-11 | 2026-09-02 00:20:12 | 49.02790 | 21.19307 | 131° | 16km/h | 19613m | 6.0m/s | -53.6°C | 1.2% | 62.3hPa | 2.7V | 00:00:00 | 00:00:00 | 00:00:00 | |
| SQ9EZE-13 | 2026-09-02 00:20:06 | 49.02811 | 21.19264 | 119° | 35km/h | 19585m | 4.8m/s | -53.7°C | 1.3% | 62.6hPa | 2.7V | 00:00:00 | 00:00:00 | 00:00:00 | |
| HA6NAB-11 | 2026-09-02 00:20:05 | 49.02815 | 21.19252 | 115° | 35km/h | 19580m | 5.5m/s | -53.7°C | 1.3% | 62.6hPa | 2.7V | 00:00:00 | 00:00:00 | 00:00:00 | |
| HA6NAB-11 | 2026-09-02 00:20:00 | 49.02831 | 21.19195 | 115° | 27km/h | 19556m | 4.1m/s | -53.9°C | 1.3% | 62.9hPa | 2.7V | 00:00:00 | 00:00:00 | 00:00:00 | |
| HA6NAB-11 | 2026-09-02 00:19:54 | 49.02848 | 21.19139 | 123° | 35km/h | 19526m | 4.5m/s | -54.0°C | 1.3% | 63.2hPa | 2.7V | 00:00:00 | 00:00:00 | 00:00:00 | |
| SQ9EZE-13 | 2026-09-02 00:19:50 | 49.02862 | 21.19089 | 105° | 37km/h | 19507m | 4.8m/s | -53.9°C | 1.3% | 63.3hPa | 2.7V | 00:00:00 | 00:00:00 | 00:00:00 | |
| HA6NAB-11 | 2026-09-02 00:19:48 | 49.02866 | 21.19061 | 102° | 38km/h | 19497m | 5.7m/s | -53.9°C | 1.3% | 63.5hPa | 2.7V | 00:00:00 | 00:00:00 | 00:00:00 | |
| HA6NAB-11 | 2026-09-02 00:19:42 | 49.02873 | 21.18980 | 102° | 35km/h | 19466m | 5.2m/s | -53.9°C | 1.3% | 63.7hPa | 2.7V | 00:00:00 | 00:00:00 | 00:00:00 | |
| SQ9EZE-13 | 2026-09-02 00:19:34 | 49.02884 | 21.18871 | 98° | 37km/h | 19426m | 5.2m/s | -54.0°C | 1.3% | 64.1hPa | 2.7V | 00:00:00 | 00:00:00 | 00:00:00 | |
| SQ9EZE-13 | 2026-09-02 00:19:19 | 49.02874 | 21.18666 | 82° | 42km/h | 19351m | 5.7m/s | -54.2°C | 1.3% | 64.9hPa | 2.7V | 00:00:00 | 00:00:00 | 00:00:00 | |
| SQ9EZE-13 | 2026-09-02 00:19:03 | 49.02852 | 21.18503 | 73° | 31km/h | 19274m | 4.9m/s | -55.0°C | 1.4% | 65.7hPa | 2.7V | 00:00:00 | 00:00:00 | 00:00:00 | |
| SQ9EZE-13 | 2026-09-02 00:18:48 | 49.02839 | 21.18380 | 93° | 20km/h | 19200m | 4.9m/s | -54.7°C | 1.4% | 66.5hPa | 2.7V | 00:00:00 | 00:00:00 | 00:00:00 | |
| SQ9EZE-13 | 2026-09-02 00:18:32 | 49.02844 | 21.18281 | 90° | 18km/h | 19124m | 3.9m/s | -54.9°C | 1.4% | 67.2hPa | 2.7V | 00:00:00 | 00:00:00 | 00:00:00 | |
| SQ9EZE-13 | 2026-09-02 00:18:16 | 49.02870 | 21.18178 | 101° | 20km/h | 19047m | 5.7m/s | -54.5°C | 1.4% | 68.1hPa | 2.7V | 00:00:00 | 00:00:00 | 00:00:00 | |
| SQ9EZE-13 | 2026-09-02 00:18:01 | 49.02869 | 21.18073 | 92° | 20km/h | 18971m | 5.2m/s | -53.9°C | 1.3% | 68.9hPa | 2.7V | 00:00:00 | 00:00:00 | 00:00:00 | |
| SQ9EZE-13 | 2026-09-02 00:17:29 | 49.02840 | 21.17790 | 80° | 35km/h | 18824m | 4.3m/s | -53.5°C | 1.3% | 70.5hPa | 2.7V | 00:00:00 | 00:00:00 | 00:00:00 | |
| SQ9EZE-13 | 2026-09-02 00:17:13 | 49.02801 | 21.17583 | 64° | 38km/h | 18753m | 5.0m/s | -53.2°C | 1.3% | 71.2hPa | 2.7V | 00:00:00 | 00:00:00 | 00:00:00 | |
| SQ9EZE-13 | 2026-09-02 00:16:57 | 49.02744 | 21.17399 | 72° | 29km/h | 18678m | 4.4m/s | -53.7°C | 1.3% | 72.1hPa | 2.7V | 00:00:00 | 00:00:00 | 00:00:00 | |
| SQ9EZE-13 | 2026-09-02 00:16:42 | 49.02705 | 21.17241 | 58° | 29km/h | 18612m | 4.3m/s | -53.7°C | 1.3% | 72.8hPa | 2.7V | 00:00:00 | 00:00:00 | 00:00:00 | |
| SQ9EZE-13 | 2026-09-02 00:16:27 | 49.02641 | 21.17106 | 53° | 27km/h | 18543m | 4.5m/s | -53.3°C | 1.3% | 73.6hPa | 2.7V | 00:00:00 | 00:00:00 | 00:00:00 | |
| SQ9EZE-13 | 2026-09-02 00:16:11 | 49.02563 | 21.16987 | 44° | 31km/h | 18474m | 3.5m/s | -53.4°C | 1.3% | 74.4hPa | 2.7V | 00:00:00 | 00:00:00 | 00:00:00 | |
| SQ9EZE-13 | 2026-09-02 00:15:56 | 49.02492 | 21.16864 | 40° | 26km/h | 18410m | 3.9m/s | -53.4°C | 1.3% | 75.1hPa | 2.7V | 00:00:00 | 00:00:00 | 00:00:00 | |
| SQ9EZE-13 | 2026-09-02 00:15:40 | 49.02426 | 21.16749 | 53° | 26km/h | 18334m | 5.8m/s | -53.7°C | 1.3% | 76.0hPa | 2.7V | 00:00:00 | 00:00:00 | 00:00:00 | |
| HA6NAB-11 | 2026-09-02 00:15:28 | 49.02395 | 21.16674 | 75° | 18km/h | 18279m | 4.3m/s | -53.4°C | 1.4% | 76.7hPa | 2.7V | 00:00:00 | 00:00:00 | 00:00:00 | |
| SQ9EZE-14 | 2026-09-02 00:15:27 | 49.02394 | 21.16667 | 69° | 18km/h | 18274m | 5.0m/s | -53.4°C | 1.3% | 76.7hPa | 2.7V | 00:00:00 | 00:00:00 | 00:00:00 | |
| SQ9EZE-13 | 2026-09-02 00:15:24 | 49.02387 | 21.16650 | 56° | 15km/h | 18259m | 5.5m/s | -53.3°C | 1.4% | 76.9hPa | 2.7V | 00:00:00 | 00:00:00 | 00:00:00 | |
| SQ9EZE-14 | 2026-09-02 00:15:12 | 49.02371 | 21.16611 | 62° | 11km/h | 18203m | 5.4m/s | -52.9°C | 1.3% | 77.6hPa | 2.7V | 00:00:00 | 00:00:00 | 00:00:00 | |
| SQ9EZE-13 | 2026-09-02 00:15:08 | 49.02362 | 21.16598 | 39° | 13km/h | 18185m | 4.2m/s | -52.9°C | 1.3% | 77.8hPa | 2.7V | 00:00:00 | 00:00:00 | 00:00:00 | |
| SQ9EZE-13 | 2026-09-02 00:14:52 | 49.02364 | 21.16507 | 96° | 20km/h | 18110m | 4.0m/s | -53.2°C | 1.3% | 78.7hPa | 2.7V | 00:00:00 | 00:00:00 | 00:00:00 | |
| SQ9EZE-13 | 2026-09-02 00:14:37 | 49.02386 | 21.16356 | 106° | 31km/h | 18042m | 3.5m/s | -53.1°C | 1.3% | 79.5hPa | 2.7V | 00:00:00 | 00:00:00 | 00:00:00 | |
| SQ9EZE-13 | 2026-09-02 00:14:21 | 49.02435 | 21.16186 | 119° | 29km/h | 17973m | 4.6m/s | -53.1°C | 1.3% | 80.4hPa | 2.7V | 00:00:00 | 00:00:00 | 00:00:00 | |
| SQ9EZE-13 | 2026-09-02 00:14:05 | 49.02506 | 21.15982 | 115° | 42km/h | 17906m | 3.8m/s | -53.0°C | 1.3% | 81.3hPa | 2.7V | 00:00:00 | 00:00:00 | 00:00:00 | |
| SQ9EZE-13 | 2026-09-02 00:13:50 | 49.02560 | 21.15772 | 116° | 44km/h | 17842m | 3.7m/s | -53.0°C | 1.3% | 82.1hPa | 2.7V | 00:00:00 | 00:00:00 | 00:00:00 | |
| SQ9EZE-13 | 2026-09-02 00:13:34 | 49.02602 | 21.15524 | 99° | 44km/h | 17773m | 5.0m/s | -53.5°C | 1.3% | 82.9hPa | 2.7V | 00:00:00 | 00:00:00 | 00:00:00 | |
| SQ9EZE-13 | 2026-09-02 00:13:19 | 49.02629 | 21.15275 | 96° | 46km/h | 17711m | 5.0m/s | -53.7°C | 1.4% | 83.7hPa | 2.7V | 00:00:00 | 00:00:00 | 00:00:00 | |
| SQ9EZE-13 | 2026-09-02 00:12:48 | 49.02627 | 21.14790 | 86° | 37km/h | 17572m | 5.2m/s | -53.4°C | 1.4% | 85.5hPa | 2.7V | 00:00:00 | 00:00:00 | 00:00:00 | |
| SQ9EZE-13 | 2026-09-02 00:12:32 | 49.02604 | 21.14569 | 73° | 40km/h | 17503m | 3.8m/s | -53.7°C | 1.4% | 86.5hPa | 2.7V | 00:00:00 | 00:00:00 | 00:00:00 | |
| SQ9EZE-13 | 2026-09-02 00:12:17 | 49.02556 | 21.14359 | 67° | 37km/h | 17437m | 5.2m/s | -53.8°C | 1.4% | 87.4hPa | 2.7V | 00:00:00 | 00:00:00 | 00:00:00 | |
| SQ9EZE-14 | 2026-09-02 00:12:11 | 49.02530 | 21.14281 | 68° | 40km/h | 17409m | 4.6m/s | -53.9°C | 1.4% | 87.7hPa | 2.7V | 00:00:00 | 00:00:00 | 00:00:00 | |
| SQ9EZE-13 | 2026-09-02 00:12:02 | 49.02513 | 21.14171 | 62° | 27km/h | 17367m | 4.0m/s | -54.9°C | 1.5% | 88.3hPa | 2.7V | 00:00:00 | 00:00:00 | 00:00:00 | |
| SQ9EZE-14 | 2026-09-02 00:11:56 | 49.02482 | 21.14104 | 61° | 33km/h | 17338m | 5.1m/s | -54.7°C | 1.5% | 88.7hPa | 2.7V | 00:00:00 | 00:00:00 | 00:00:00 | |
| SQ9EZE-13 | 2026-09-02 00:11:30 | 49.02447 | 21.13909 | 81° | 22km/h | 17207m | 5.8m/s | -54.0°C | 1.4% | 90.5hPa | 2.7V | 00:00:00 | 00:00:00 | 00:00:00 | |
| SQ9EZE-13 | 2026-09-02 00:11:14 | 49.02459 | 21.13748 | 111° | 29km/h | 17122m | 4.7m/s | -54.0°C | 1.5% | 91.8hPa | 2.7V | 00:00:00 | 00:00:00 | 00:00:00 | |
| SQ9EZE-13 | 2026-09-02 00:10:59 | 49.02503 | 21.13543 | 110° | 38km/h | 17040m | 4.2m/s | -53.5°C | 1.5% | 92.9hPa | 2.7V | 00:00:00 | 00:00:00 | 00:00:00 | |
| SQ9EZE-13 | 2026-09-02 00:10:43 | 49.02551 | 21.13275 | 107° | 51km/h | 16961m | 5.8m/s | -53.5°C | 1.4% | 94.1hPa | 2.7V | 00:00:00 | 00:00:00 | 00:00:00 | |
| SQ9EZE-13 | 2026-09-02 00:10:27 | 49.02600 | 21.12919 | 101° | 58km/h | 16877m | 5.7m/s | -54.3°C | 1.5% | 95.3hPa | 2.7V | 00:00:00 | 00:00:00 | 00:00:00 | |
| SQ9EZE-13 | 2026-09-02 00:10:11 | 49.02622 | 21.12574 | 89° | 51km/h | 16798m | 4.5m/s | -54.3°C | 1.5% | 96.5hPa | 2.7V | 00:00:00 | 00:00:00 | 00:00:00 | |
| SQ9EZE-13 | 2026-09-02 00:09:55 | 49.02612 | 21.12265 | 89° | 46km/h | 16719m | 4.9m/s | -53.8°C | 1.5% | 97.7hPa | 2.7V | 00:00:00 | 00:00:00 | 00:00:00 | |
| SQ9EZE-14 | 2026-09-02 00:09:47 | 49.02604 | 21.12110 | 85° | 47km/h | 16680m | 4.6m/s | -53.7°C | 1.5% | 98.3hPa | 2.7V | 00:00:00 | 00:00:00 | 00:00:00 | |
| SQ9EZE-13 | 2026-09-02 00:09:39 | 49.02596 | 21.11976 | 84° | 42km/h | 16642m | 5.6m/s | -53.4°C | 1.4% | 98.8hPa | 2.7V | 00:00:00 | 00:00:00 | 00:00:00 | |
| SQ9EZE-14 | 2026-09-02 00:09:32 | 49.02586 | 21.11862 | 84° | 40km/h | 16608m | 4.2m/s | -53.5°C | 1.5% | 99.4hPa | 2.7V | 00:00:00 | 00:00:00 | 00:00:00 | |
| SQ9EZE-13 | 2026-09-02 00:09:27 | 49.02575 | 21.11736 | 82° | 38km/h | 16573m | 5.0m/s | -53.5°C | 1.4% | 99.9hPa | 2.7V | 00:00:00 | 00:00:00 | 00:00:00 | |
| SQ9EZE-13 | 2026-09-02 00:09:08 | 49.02571 | 21.11493 | 100° | 35km/h | 16497m | 4.3m/s | -53.8°C | 1.5% | 101.1hPa | 2.7V | 00:00:00 | 00:00:00 | 00:00:00 | |
| OE3JTB-15 | 2026-09-02 00:09:02 | 49.02576 | 21.11395 | 96° | 47km/h | 16463m | 5.5m/s | -53.6°C | 4.3% | 101.6hPa | 2.7V | 00:00:00 | 01:08:43 | 00:00:00 | |
| SQ9EZE-13 | 2026-09-02 00:08:53 | 49.02588 | 21.11276 | 100° | 38km/h | 16428m | 4.3m/s | -53.4°C | 1.5% | 102.2hPa | 2.7V | 00:00:00 | 00:00:00 | 00:00:00 | |
| SQ9EZE-13 | 2026-09-02 00:08:38 | 49.02606 | 21.11016 | 98° | 46km/h | 16357m | 5.2m/s | -53.7°C | 1.5% | 103.3hPa | 2.7V | 00:00:00 | 00:00:00 | 00:00:00 | |
| OE3JTB-15 | 2026-09-02 00:08:30 | 49.02614 | 21.10833 | 97° | 57km/h | 16318m | 4.0m/s | -53.6°C | 4.3% | 103.9hPa | 2.7V | 00:00:00 | 00:00:00 | 08:30:00 | |
| SQ9EZE-13 | 2026-09-02 00:08:22 | 49.02631 | 21.10684 | 101° | 53km/h | 16287m | 4.1m/s | -53.5°C | 1.5% | 104.5hPa | 2.6V | 00:00:00 | 00:00:00 | 00:00:00 | |
| SQ9EZE-13 | 2026-09-02 00:08:07 | 49.02653 | 21.10372 | 98° | 53km/h | 16221m | 3.2m/s | -53.6°C | 1.5% | 105.5hPa | 2.6V | 00:00:00 | 00:00:00 | 00:00:00 | |
| OE3JTB-15 | 2026-09-02 00:07:53 | 49.02669 | 21.10006 | 97° | 64km/h | 16152m | 5.1m/s | -53.6°C | 4.3% | 106.6hPa | 2.6V | 00:00:00 | 00:00:00 | 00:00:00 | |
| SQ9EZE-13 | 2026-09-02 00:07:36 | 49.02683 | 21.09644 | 95° | 62km/h | 16087m | 4.4m/s | -53.7°C | 1.6% | 107.7hPa | 2.6V | 00:00:00 | 00:00:00 | 00:00:00 | |
| SQ9EZE-14 | 2026-09-02 00:07:23 | 49.02697 | 21.09324 | 89° | 66km/h | 16032m | 3.3m/s | -53.9°C | 1.5% | 108.7hPa | 2.6V | 00:00:00 | 00:00:00 | 00:00:00 | |
| SQ9EZE-13 | 2026-09-02 00:07:22 | 49.02697 | 21.09274 | 91° | 64km/h | 16023m | 4.7m/s | -54.0°C | 1.5% | 108.8hPa | 2.6V | 00:00:00 | 00:00:00 | 00:00:00 | |
| OE3JTB-15 | 2026-09-02 00:07:21 | 49.02697 | 21.09250 | 92° | 66km/h | 16019m | 3.2m/s | -54.1°C | 4.4% | 108.8hPa | 2.6V | 00:00:00 | 01:07:02 | 00:00:00 | |
| SQ9EZE-14 | 2026-09-02 00:07:08 | 49.02693 | 21.08955 | 90° | 62km/h | 15968m | 3.5m/s | -54.5°C | 1.6% | 109.7hPa | 2.6V | 00:00:00 | 00:00:00 | 00:00:00 | |
| SQ9EZE-13 | 2026-09-02 00:07:06 | 49.02693 | 21.08879 | 93° | 69km/h | 15955m | 4.4m/s | -54.6°C | 1.6% | 110.0hPa | 2.6V | 00:00:00 | 00:00:00 | 00:00:00 | |
| OE3JTB-15 | 2026-09-02 00:06:51 | 49.02695 | 21.08525 | 91° | 62km/h | 15891m | 4.5m/s | -54.3°C | 4.5% | 111.0hPa | 2.6V | 00:00:00 | 00:00:00 | 00:00:00 | |
| SQ9EZE-13 | 2026-09-02 00:06:49 | 49.02696 | 21.08501 | 92° | 64km/h | 15887m | 4.1m/s | -54.4°C | 1.6% | 111.1hPa | 2.7V | 00:00:00 | 00:00:00 | 00:00:00 | |
| SQ9EZE-13 | 2026-09-02 00:06:33 | 49.02711 | 21.08139 | 98° | 71km/h | 15820m | 4.4m/s | -54.4°C | 1.6% | 112.3hPa | 2.7V | 00:00:00 | 00:00:00 | 00:00:00 | |
| OE3JTB-15 | 2026-09-02 00:06:22 | 49.02722 | 21.07863 | 91° | 82km/h | 15771m | 4.0m/s | -54.4°C | 4.6% | 113.1hPa | 2.7V | 00:00:00 | 00:00:00 | 00:00:00 | |
| SQ9EZE-13 | 2026-09-02 00:06:18 | 49.02723 | 21.07764 | 91° | 64km/h | 15753m | 5.3m/s | -54.4°C | 1.6% | 113.5hPa | 2.7V | 00:00:00 | 00:00:00 | 00:00:00 | |
| SQ9EZE-13 | 2026-09-02 00:06:01 | 49.02723 | 21.07362 | 89° | 71km/h | 15684m | 4.7m/s | -54.8°C | 1.7% | 114.7hPa | 2.7V | 00:00:00 | 00:00:00 | 00:00:00 | |
| SQ9EZE-13 | 2026-09-02 00:05:47 | 49.02711 | 21.06955 | 85° | 73km/h | 15618m | 4.5m/s | -54.7°C | 1.7% | 115.9hPa | 2.7V | 00:00:00 | 00:00:00 | 00:00:00 | |
| SQ9EZE-13 | 2026-09-02 00:05:32 | 49.02688 | 21.06563 | 82° | 66km/h | 15550m | 5.4m/s | -54.6°C | 1.7% | 117.1hPa | 2.7V | 00:00:00 | 00:00:00 | 00:00:00 | |
| SQ9EZE-13 | 2026-09-02 00:05:16 | 49.02671 | 21.06186 | 84° | 66km/h | 15488m | 4.7m/s | -54.7°C | 1.7% | 118.3hPa | 2.7V | 00:00:00 | 00:00:00 | 00:00:00 | |
| SQ9EZE-14 | 2026-09-02 00:05:05 | 49.02656 | 21.05865 | 85° | 77km/h | 15434m | 5.2m/s | -54.7°C | 1.8% | 119.3hPa | 2.7V | 00:00:00 | 00:00:00 | 00:00:00 | |
| SQ9EZE-13 | 2026-09-02 00:05:00 | 49.02645 | 21.05752 | 85° | 73km/h | 15418m | 5.5m/s | -54.7°C | 1.8% | 119.6hPa | 2.7V | 00:00:00 | 00:00:00 | 00:00:00 | |
| HA6NAB-11 | 2026-09-02 00:04:58 | 49.02640 | 21.05635 | 87° | 77km/h | 15398m | 3.9m/s | -54.6°C | 1.8% | 120.0hPa | 2.7V | 00:00:00 | 00:00:00 | 00:00:00 | |
| HA6NAB-11 | 2026-09-02 00:04:51 | 49.02631 | 21.05461 | 84° | 71km/h | 15372m | 4.5m/s | -54.7°C | 1.8% | 120.4hPa | 2.7V | 00:00:00 | 00:00:00 | 00:00:00 | |
| SQ9EZE-14 | 2026-09-02 00:04:50 | 49.02629 | 21.05434 | 84° | 73km/h | 15367m | 3.8m/s | -54.7°C | 1.8% | 120.5hPa | 2.7V | 00:00:00 | 00:00:00 | 00:00:00 | |
| SQ9EZE-13 | 2026-09-02 00:04:45 | 49.02614 | 21.05282 | 81° | 84km/h | 15347m | 4.5m/s | -54.6°C | 1.8% | 120.9hPa | 2.7V | 00:00:00 | 00:00:00 | 00:00:00 | |
| SQ9EZE-13 | 2026-09-02 00:04:28 | 49.02558 | 21.04827 | 80° | 77km/h | 15279m | 3.9m/s | -54.5°C | 1.8% | 122.2hPa | 2.7V | 00:00:00 | 00:00:00 | 00:00:00 | |
| HA6NAB-11 | 2026-09-02 00:04:13 | 49.02482 | 21.04403 | 75° | 75km/h | 15211m | 4.6m/s | -54.1°C | 1.8% | 123.5hPa | 2.7V | 00:00:00 | 00:00:00 | 00:00:00 | |
| HA6NAB-11 | 2026-09-02 00:04:08 | 49.02450 | 21.04256 | 74° | 62km/h | 15185m | 3.9m/s | -54.0°C | 1.8% | 124.1hPa | 2.7V | 00:00:00 | 00:00:00 | 00:00:00 | |
| HA6NAB-11 | 2026-09-02 00:04:01 | 49.02407 | 21.03984 | 77° | 66km/h | 15137m | 4.0m/s | -53.8°C | 1.8% | 124.9hPa | 2.7V | 00:00:00 | 00:00:00 | 00:00:00 | |
| HA6NAB-11 | 2026-09-02 00:03:54 | 49.02378 | 21.03843 | 76° | 64km/h | 15112m | 3.0m/s | -53.7°C | 1.8% | 125.5hPa | 2.7V | 00:00:00 | 00:00:00 | 00:00:00 | |
| HA6NAB-11 | 2026-09-02 00:03:50 | 49.02356 | 21.03699 | 81° | 66km/h | 15087m | 3.9m/s | -53.6°C | 1.7% | 125.9hPa | 2.7V | 00:00:00 | 00:00:00 | 00:00:00 | |
| SQ9EZE-13 | 2026-09-02 00:03:47 | 49.02350 | 21.03650 | 80° | 64km/h | 15078m | 4.1m/s | -53.5°C | 1.8% | 126.1hPa | 2.7V | 00:00:00 | 00:00:00 | 00:00:00 | |
| HA6NAB-11 | 2026-09-02 00:03:43 | 49.02337 | 21.03557 | 76° | 58km/h | 15062m | 4.9m/s | -53.6°C | 1.8% | 126.4hPa | 2.7V | 00:00:00 | 00:00:00 | 00:00:00 | |
| HA6NAB-11 | 2026-09-02 00:03:32 | 49.02316 | 21.03432 | 79° | 58km/h | 15036m | 4.8m/s | -53.7°C | 1.8% | 126.9hPa | 2.7V | 00:00:00 | 00:00:00 | 00:00:00 | |
| SQ9EZE-13 | 2026-09-02 00:03:30 | 49.02301 | 21.03316 | 79° | 62km/h | 15014m | 4.4m/s | -53.6°C | 1.8% | 127.4hPa | 2.7V | 00:00:00 | 00:00:00 | 00:00:00 | |
| HA6NAB-11 | 2026-09-02 00:03:29 | 49.02298 | 21.03294 | 79° | 60km/h | 15010m | 2.8m/s | -53.6°C | 1.8% | 127.4hPa | 2.7V | 00:00:00 | 00:00:00 | 00:00:00 | |
| SQ9EZE-13 | 2026-09-02 00:03:22 | 49.02274 | 21.02982 | 85° | 60km/h | 14950m | 4.7m/s | -53.7°C | 1.8% | 128.7hPa | 2.7V | 00:00:00 | 00:00:00 | 00:00:00 | |
| SQ9EZE-13 | 2026-09-02 00:03:10 | 49.02247 | 21.02631 | 85° | 58km/h | 14883m | 3.4m/s | -53.6°C | 1.8% | 130.0hPa | 2.7V | 00:00:00 | 00:00:00 | 00:00:00 | |
| SQ9EZE-14 | 2026-09-02 00:02:59 | 49.02233 | 21.02419 | 88° | 66km/h | 14847m | 3.9m/s | -53.6°C | 1.8% | 130.7hPa | 2.7V | 00:00:00 | 00:00:00 | 00:00:00 | |
| SQ9EZE-13 | 2026-09-02 00:02:49 | 49.02226 | 21.02271 | 83° | 60km/h | 14822m | 5.1m/s | -53.6°C | 1.8% | 131.2hPa | 2.7V | 00:00:00 | 00:00:00 | 00:00:00 | |
| SQ9EZE-13 | 2026-09-02 00:02:34 | 49.02193 | 21.01870 | 79° | 62km/h | 14762m | 3.2m/s | -53.9°C | 1.9% | 132.4hPa | 2.7V | 00:00:00 | 00:00:00 | 00:00:00 | |
| SQ9EZE-13 | 2026-09-02 00:02:17 | 49.02153 | 21.01452 | 85° | 66km/h | 14700m | 3.5m/s | -53.5°C | 1.9% | 133.7hPa | 2.7V | 00:00:00 | 00:00:00 | 00:00:00 | |
| SQ9EZE-13 | 2026-09-02 00:01:59 | 49.02124 | 21.01040 | 89° | 66km/h | 14638m | 4.3m/s | -53.5°C | 1.9% | 135.0hPa | 2.7V | 00:00:00 | 00:00:00 | 00:00:00 | |
| SQ9EZE-13 | 2026-09-02 00:01:43 | 49.02112 | 21.00624 | 86° | 71km/h | 14576m | 4.2m/s | -53.3°C | 1.9% | 136.3hPa | 2.7V | 00:00:00 | 00:00:00 | 00:00:00 | |
| SQ9EZE-13 | 2026-09-02 00:01:25 | 49.02086 | 21.00190 | 84° | 71km/h | 14511m | 3.0m/s | -53.7°C | 1.9% | 137.7hPa | 2.7V | 00:00:00 | 00:00:00 | 00:00:00 | |
| SQ9EZE-13 | 2026-09-02 00:01:07 | 49.02055 | 20.99734 | 86° | 89km/h | 14453m | 4.1m/s | -54.3°C | 2.0% | 138.9hPa | 2.7V | 00:00:00 | 00:00:00 | 00:00:00 | |
| SQ9EZE-13 | 2026-09-02 00:00:50 | 49.02021 | 20.99227 | 84° | 89km/h | 14392m | 3.2m/s | -54.4°C | 2.0% | 140.3hPa | 2.7V | 00:00:00 | 00:00:00 | 00:00:00 | |
| B-11 | 2026-09-02 00:00:45 | 49.01978 | 20.98918 | 78° | 84km/h | 14351m | 4.2m/s | -54.3°C | 2.0% | 141.2hPa | 2.7V | 00:00:00 | 00:00:00 | 00:00:00 | |
| HA6NAB-11 | 2026-09-02 00:00:37 | 49.01946 | 20.98724 | 75° | 84km/h | 14325m | 4.0m/s | -54.3°C | 2.0% | 141.8hPa | 2.7V | 00:00:00 | 00:00:00 | 00:00:00 | |
| HA6NAB-11 | 2026-09-02 00:00:33 | 49.01912 | 20.98545 | 77° | 77km/h | 14300m | 3.7m/s | -54.1°C | 0% | 142.3hPa | 2.7V | 00:00:00 | 00:00:00 | 00:00:00 | |
| SQ9EZE-14 | 2026-09-02 00:00:32 | 49.01907 | 20.98517 | 76° | 78km/h | 14297m | 3.3m/s | -54.1°C | 2.0% | 142.4hPa | 2.7V | 00:00:00 | 00:00:00 | 00:00:00 | |
| HA6NAB-11 | 2026-09-02 00:00:27 | 49.01876 | 20.98365 | 71° | 84km/h | 14276m | 3.6m/s | -54.0°C | 0% | 0hPa | 2.7V | 00:00:00 | 00:00:00 | 00:00:00 | |
| SQ9EZE-13 | 2026-09-02 00:00:24 | 49.01848 | 20.98244 | 74° | 82km/h | 14259m | 4.7m/s | -53.9°C | 1.9% | 143.2hPa | 2.7V | 00:00:00 | 00:00:00 | 00:00:00 | |
| SQ9EZE-14 | 2026-09-02 00:00:19 | 49.01815 | 20.98068 | 73° | 78km/h | 14233m | 4.7m/s | -53.8°C | 2.0% | 143.8hPa | 2.7V | 00:00:00 | 00:00:00 | 00:00:00 | |
| SQ9EZE-13 | 2026-09-02 00:00:03 | 49.01763 | 20.97803 | 76° | 77km/h | 14197m | 5.2m/s | -53.8°C | 2.0% | 144.6hPa | 2.7V | 00:00:00 | 00:00:00 | 00:00:00 | |
| SQ9EZE-13 | 2026-09-01 23:59:47 | 49.01678 | 20.97355 | 76° | 71km/h | 14133m | 3.8m/s | -53.5°C | 1.9% | 146.0hPa | 2.7V | 00:00:00 | 00:00:00 | 00:00:00 | |
| SQ9EZE-13 | 2026-09-01 23:59:31 | 49.01619 | 20.96933 | 80° | 69km/h | 14067m | 4.4m/s | -53.3°C | 2.0% | 147.6hPa | 2.7V | 00:00:00 | 00:00:00 | 00:00:00 | |
| SQ9EZE-13 | 2026-09-01 23:59:15 | 49.01590 | 20.96507 | 85° | 69km/h | 14002m | 4.8m/s | -53.5°C | 2.1% | 149.1hPa | 2.7V | 00:00:00 | 00:00:00 | 00:00:00 | |
| SQ9EZE-13 | 2026-09-01 23:59:01 | 49.01597 | 20.96130 | 91° | 66km/h | 13943m | 3.7m/s | -53.4°C | 2.2% | 150.4hPa | 2.7V | 00:00:00 | 00:00:00 | 00:00:00 | |
| SQ9EZE-13 | 2026-09-01 23:58:44 | 49.01621 | 20.95696 | 98° | 73km/h | 13879m | 4.5m/s | -53.7°C | 2.2% | 152.0hPa | 2.7V | 00:00:00 | 00:00:00 | 00:00:00 | |
| SQ9EZE-13 | 2026-09-01 23:58:28 | 49.01663 | 20.95220 | 99° | 80km/h | 13815m | 3.4m/s | -53.8°C | 2.3% | 153.4hPa | 2.7V | 00:00:00 | 00:00:00 | 00:00:00 | |
| SQ9EZE-13 | 2026-09-01 23:58:13 | 49.01695 | 20.94734 | 94° | 86km/h | 13757m | 3.0m/s | -53.8°C | 2.4% | 154.9hPa | 2.7V | 00:00:00 | 00:00:00 | 00:00:00 | |
| SQ9EZE-14 | 2026-09-01 23:58:10 | 49.01701 | 20.94636 | 96° | 84km/h | 13746m | 2.9m/s | -53.8°C | 2.4% | 155.1hPa | 2.7V | 00:00:00 | 00:00:00 | 00:00:00 | |
| HA6NAB-11 | 2026-09-01 23:58:08 | 49.01704 | 20.94571 | 95° | 88km/h | 13738m | 4.3m/s | -53.9°C | 0% | 0hPa | 2.7V | 00:00:00 | 00:00:00 | 00:00:00 | |
| HA6NAB-11 | 2026-09-01 23:58:02 | 49.01711 | 20.94367 | 94° | 89km/h | 13712m | 3.4m/s | -54.1°C | 0% | 0hPa | 2.7V | 00:00:00 | 00:00:00 | 00:00:00 | |
| SQ9EZE-13 | 2026-09-01 23:57:58 | 49.01717 | 20.94232 | 94° | 88km/h | 13698m | 4.1m/s | -54.4°C | 2.5% | 156.2hPa | 2.7V | 00:00:00 | 00:00:00 | 00:00:00 | |
| SQ9EZE-14 | 2026-09-01 23:57:54 | 49.01718 | 20.94093 | 90° | 91km/h | 13683m | 4.1m/s | -54.5°C | 2.6% | 156.6hPa | 2.7V | 00:00:00 | 00:00:00 | 00:00:00 | |
| SQ9EZE-13 | 2026-09-01 23:57:43 | 49.01713 | 20.93692 | 87° | 95km/h | 13642m | 3.6m/s | -54.8°C | 2.7% | 157.7hPa | 2.7V | 00:00:00 | 00:00:00 | 00:00:00 | |
| OE3JTB-15 | 2026-09-01 23:57:31 | 49.01703 | 20.93201 | 89° | 100km/h | 13592m | 4.4m/s | -55.0°C | 5.6% | 158.8hPa | 2.7V | 00:00:00 | 00:57:12 | 00:00:00 | |
| SQ9EZE-13 | 2026-09-01 23:57:27 | 49.01701 | 20.93088 | 89° | 99km/h | 13580m | 4.1m/s | -55.0°C | 2.7% | 159.2hPa | 2.7V | 00:00:00 | 00:00:00 | 00:00:00 | |
| SQ9EZE-13 | 2026-09-01 23:57:12 | 49.01657 | 20.92477 | 83° | 102km/h | 13515m | 4.5m/s | -55.3°C | 3.1% | 160.8hPa | 2.7V | 00:00:00 | 00:00:00 | 00:00:00 | |
| SQ9EZE-13 | 2026-09-01 23:56:56 | 49.01599 | 20.91917 | 82° | 97km/h | 13454m | 4.7m/s | -54.9°C | 3.2% | 162.4hPa | 2.7V | 00:00:00 | 00:00:00 | 00:00:00 | |
| HA6NAB-11 | 2026-09-01 23:56:47 | 49.01565 | 20.91586 | 81° | 95km/h | 13416m | 4.8m/s | -54.8°C | 0% | 0hPa | 2.7V | 00:00:00 | 00:00:00 | 00:00:00 | |
| SQ9EZE-13 | 2026-09-01 23:56:41 | 49.01546 | 20.91374 | 85° | 91km/h | 13392m | 4.1m/s | -54.8°C | 3.7% | 164.0hPa | 2.7V | 00:00:00 | 00:00:00 | 00:00:00 | |
| HA6NAB-11 | 2026-09-01 23:56:36 | 49.01534 | 20.91195 | 85° | 93km/h | 13370m | 3.3m/s | -55.0°C | 0% | 0hPa | 2.7V | 00:00:00 | 00:00:00 | 00:00:00 | |
| OE3JTB-15 | 2026-09-01 23:56:32 | 49.01519 | 20.91015 | 83° | 88km/h | 13350m | 4.6m/s | -55.0°C | 7.6% | 165.0hPa | 2.7V | 00:00:00 | 00:00:00 | 00:00:00 | |
| HA6NAB-11 | 2026-09-01 23:56:31 | 49.01519 | 20.91015 | 84° | 91km/h | 13350m | 4.6m/s | 0°C | 0% | 0hPa | 2.7V | 00:00:00 | 00:00:00 | 00:00:00 | |
| HA6NAB-11 | 2026-09-01 23:56:25 | 49.01507 | 20.90808 | 86° | 89km/h | 13324m | 4.3m/s | 0°C | 0% | 0hPa | 2.7V | 00:00:00 | 00:00:00 | 00:00:00 | |
| HA6NAB-11 | 2026-09-01 23:56:19 | 49.01493 | 20.90604 | 85° | 86km/h | 13298m | 4.5m/s | 0°C | 0% | 0hPa | 2.7V | 00:00:00 | 00:00:00 | 00:00:00 | |
| HA6NAB-11 | 2026-09-01 23:56:14 | 49.01484 | 20.90444 | 88° | 84km/h | 13276m | 4.3m/s | 0°C | 0% | 0hPa | 2.7V | 00:00:00 | 00:00:00 | 00:00:00 | |
| SQ9EZE-13 | 2026-09-01 23:56:10 | 49.01479 | 20.90315 | 87° | 84km/h | 13258m | 4.2m/s | -55.2°C | 4.5% | 167.4hPa | 2.7V | 00:00:00 | 00:00:00 | 00:00:00 | |
| HA6NAB-11 | 2026-09-01 23:56:09 | 49.01477 | 20.90283 | 87° | 84km/h | 13254m | 3.2m/s | 0°C | 0% | 0hPa | 2.7V | 00:00:00 | 00:00:00 | 00:00:00 | |
| HA6NAB-11 | 2026-09-01 23:56:03 | 49.01469 | 20.90085 | 88° | 89km/h | 13227m | 5.7m/s | 0°C | 0% | 0hPa | 2.7V | 00:00:00 | 00:00:00 | 00:00:00 | |
| OE3JTB-15 | 2026-09-01 23:56:02 | 49.01468 | 20.90015 | 90° | 95km/h | 13217m | 4.4m/s | -55.1°C | 7.7% | 168.5hPa | 2.7V | 00:00:00 | 00:55:43 | 00:00:00 | |
| SQ9EZE-13 | 2026-09-01 23:55:54 | 49.01464 | 20.89769 | 86° | 91km/h | 13185m | 4.9m/s | -55.1°C | 4.5% | 169.4hPa | 2.7V | 00:00:00 | 00:00:00 | 00:00:00 | |
| SQ9EZE-14 | 2026-09-01 23:55:51 | 49.01457 | 20.89664 | 85° | 95km/h | 13171m | 4.8m/s | -55.0°C | 4.7% | 169.7hPa | 2.7V | 00:00:00 | 00:00:00 | 00:00:00 | |
| SQ9EZE-13 | 2026-09-01 23:55:39 | 49.01433 | 20.89218 | 85° | 97km/h | 13113m | 4.8m/s | -55.2°C | 4.9% | 171.3hPa | 2.7V | 00:00:00 | 00:00:00 | 00:00:00 | |
| SQ9EZE-14 | 2026-09-01 23:55:35 | 49.01422 | 20.89071 | 85° | 99km/h | 13094m | 4.8m/s | -55.6°C | 5.2% | 171.8hPa | 2.7V | 00:00:00 | 00:00:00 | 00:00:00 | |
| OE3JTB-15 | 2026-09-01 23:55:32 | 49.01408 | 20.88913 | 82° | 110km/h | 13075m | 4.4m/s | -55.5°C | 8.8% | 172.2hPa | 2.7V | 00:00:00 | 00:00:00 | 08:30:00 | |
| SQ9EZE-13 | 2026-09-01 23:55:23 | 49.01373 | 20.88594 | 79° | 106km/h | 13040m | 4.6m/s | -55.6°C | 5.5% | 173.3hPa | 0V | 00:00:00 | 00:00:00 | 00:00:00 | |
| SQ9EZE-13 | 2026-09-01 23:55:08 | 49.01280 | 20.88009 | 73° | 102km/h | 12966m | 5.4m/s | -55.5°C | 5.8% | 175.2hPa | 0V | 00:00:00 | 00:00:00 | 00:00:00 | |
| SQ9EZE-13 | 2026-09-01 23:54:52 | 49.01146 | 20.87407 | 70° | 102km/h | 12895m | 3.4m/s | -55.4°C | 5.8% | 177.2hPa | 0V | 00:00:00 | 00:00:00 | 00:00:00 | |
| SQ9EZE-13 | 2026-09-01 23:54:36 | 49.00999 | 20.86837 | 69° | 100km/h | 12825m | 5.2m/s | -55.1°C | 6.1% | 179.1hPa | 0V | 00:00:00 | 00:00:00 | 00:00:00 | |
| SQ9EZE-13 | 2026-09-01 23:54:20 | 49.00856 | 20.86300 | 68° | 93km/h | 12755m | 5.1m/s | -55.0°C | 6.4% | 181.1hPa | 0V | 00:00:00 | 00:00:00 | 00:00:00 | |
| SQ9EZE-13 | 2026-09-01 23:54:05 | 49.00710 | 20.85831 | 64° | 88km/h | 12693m | 4.5m/s | -54.8°C | 6.7% | 182.9hPa | 0V | 00:00:00 | 00:00:00 | 00:00:00 | |
| SQ9EZE-13 | 2026-09-01 23:53:50 | 49.00578 | 20.85398 | 70° | 80km/h | 12632m | 4.7m/s | -54.3°C | 7.2% | 184.6hPa | 0V | 00:00:00 | 00:00:00 | 00:00:00 | |
| SQ9EZE-13 | 2026-09-01 23:53:34 | 49.00449 | 20.84945 | 71° | 73km/h | 12568m | 4.7m/s | -54.4°C | 8.6% | 186.4hPa | 0V | 00:00:00 | 00:00:00 | 00:00:00 | |
| SQ9EZE-14 | 2026-09-01 23:53:31 | 49.00428 | 20.84867 | 66° | 73km/h | 12555m | 3.7m/s | -54.5°C | 9.0% | 186.9hPa | 0V | 00:00:00 | 00:00:00 | 00:00:00 | |
| SQ9EZE-13 | 2026-09-01 23:53:18 | 49.00340 | 20.84518 | 77° | 69km/h | 12495m | 4.2m/s | -55.2°C | 10.3% | 188.6hPa | 0V | 00:00:00 | 00:00:00 | 00:00:00 | |
| SQ9EZE-14 | 2026-09-01 23:53:16 | 49.00332 | 20.84464 | 82° | 73km/h | 12486m | 4.3m/s | -55.2°C | 10.6% | 188.9hPa | 0V | 00:00:00 | 00:00:00 | 00:00:00 | |
| SQ9EZE-13 | 2026-09-01 23:53:03 | 49.00300 | 20.84065 | 88° | 77km/h | 12421m | 7.6m/s | -55.2°C | 11.4% | 190.8hPa | 0V | 00:00:00 | 00:00:00 | 00:00:00 | |
| SQ9EZE-13 | 2026-09-01 23:52:47 | 49.00279 | 20.83577 | 95° | 75km/h | 12339m | 6.3m/s | -55.2°C | 13.3% | 193.2hPa | 0V | 00:00:00 | 00:00:00 | 00:00:00 | |
| SQ9EZE-13 | 2026-09-01 23:52:32 | 49.00309 | 20.83036 | 98° | 88km/h | 12254m | 5.4m/s | -55.6°C | 15.4% | 195.8hPa | 0V | 00:00:00 | 00:00:00 | 00:00:00 | |
| SQ9EZE-13 | 2026-09-01 23:52:16 | 49.00338 | 20.82498 | 95° | 84km/h | 12172m | 5.9m/s | -55.8°C | 17.0% | 198.4hPa | 0V | 00:00:00 | 00:00:00 | 00:00:00 | |
| SQ9EZE-13 | 2026-09-01 23:52:01 | 49.00382 | 20.81968 | 103° | 93km/h | 12093m | 3.4m/s | -55.7°C | 19.1% | 200.8hPa | 0V | 00:00:00 | 00:00:00 | 00:00:00 | |
| SQ9EZE-13 | 2026-09-01 23:51:45 | 49.00451 | 20.81328 | 93° | 108km/h | 11997m | 7.4m/s | -56.1°C | 20.6% | 203.9hPa | 0V | 00:00:00 | 00:00:00 | 00:00:00 | |
| SQ9EZE-13 | 2026-09-01 23:51:30 | 49.00475 | 20.80719 | 90° | 108km/h | 11916m | 4.3m/s | -56.0°C | 21.5% | 206.5hPa | 0V | 00:00:00 | 00:00:00 | 00:00:00 | |
| SQ9EZE-14 | 2026-09-01 23:51:22 | 49.00485 | 20.80343 | 97° | 108km/h | 11867m | 3.9m/s | -55.9°C | 22.0% | 208.0hPa | 0V | 00:00:00 | 00:00:00 | 00:00:00 | |
| SQ9EZE-13 | 2026-09-01 23:51:14 | 49.00499 | 20.80056 | 92° | 110km/h | 11829m | 6.6m/s | -55.9°C | 21.3% | 209.3hPa | 0V | 00:00:00 | 00:00:00 | 00:00:00 | |
| SQ9EZE-14 | 2026-09-01 23:51:05 | 49.00520 | 20.79687 | 95° | 102km/h | 11775m | 6.9m/s | -55.5°C | 21.7% | 211.0hPa | 0V | 00:00:00 | 00:00:00 | 00:00:00 | |
| SQ9EZE-13 | 2026-09-01 23:50:59 | 49.00535 | 20.79453 | 97° | 104km/h | 11744m | 8.9m/s | -55.4°C | 21.1% | 212.1hPa | 0V | 00:00:00 | 00:00:00 | 00:00:00 | |
| SQ9EZE-14 | 2026-09-01 23:50:50 | 49.00556 | 20.79083 | 99° | 102km/h | 11693m | 4.7m/s | -55.0°C | 21.2% | 213.9hPa | 0V | 00:00:00 | 00:00:00 | 00:00:00 | |
| SQ9EZE-13 | 2026-09-01 23:50:45 | 49.00575 | 20.78847 | 97° | 106km/h | 11657m | 8.0m/s | -54.9°C | 21.4% | 215.0hPa | 0V | 00:00:00 | 00:00:00 | 00:00:00 | |
| SQ9EZE-14 | 2026-09-01 23:50:34 | 49.00600 | 20.78446 | 98° | 106km/h | 11598m | 5.6m/s | -54.7°C | 21.9% | 217.0hPa | 0V | 00:00:00 | 00:00:00 | 00:00:00 | |
| SQ9EZE-13 | 2026-09-01 23:50:28 | 49.00616 | 20.78201 | 94° | 108km/h | 11564m | 6.0m/s | -54.5°C | 22.3% | 218.2hPa | 0V | 00:00:00 | 00:00:00 | 00:00:00 | |
| SQ9EZE-13 | 2026-09-01 23:50:12 | 49.00672 | 20.77521 | 95° | 110km/h | 11467m | 6.9m/s | -54.3°C | 23.7% | 221.5hPa | 0V | 00:00:00 | 00:00:00 | 00:00:00 | |
| SQ9EZE-13 | 2026-09-01 23:49:57 | 49.00730 | 20.76860 | 95° | 119km/h | 11385m | 6.1m/s | -54.0°C | 24.5% | 224.4hPa | 0V | 00:00:00 | 00:00:00 | 00:00:00 | |
| SQ9EZE-13 | 2026-09-01 23:49:41 | 49.00776 | 20.76153 | 99° | 119km/h | 11298m | 6.8m/s | -53.6°C | 24.0% | 227.4hPa | 0V | 00:00:00 | 00:00:00 | 00:00:00 | |
| SQ9EZE-13 | 2026-09-01 23:49:25 | 49.00835 | 20.75390 | 95° | 128km/h | 11193m | 7.6m/s | -53.1°C | 24.1% | 231.1hPa | 0V | 00:00:00 | 00:00:00 | 00:00:00 | |
| HA6NAB-11 | 2026-09-01 23:49:13 | 49.00875 | 20.74810 | 99° | 124km/h | 11116m | 7.5m/s | 0°C | 0% | 0hPa | 0V | 00:00:00 | 00:00:00 | 00:00:00 | |
| SQ9EZE-13 | 2026-09-01 23:49:10 | 49.00886 | 20.74668 | 97° | 124km/h | 11098m | 5.3m/s | -52.4°C | 23.9% | 234.5hPa | 0V | 00:00:00 | 00:00:00 | 00:00:00 | |
| HA6NAB-11 | 2026-09-01 23:49:07 | 49.00901 | 20.74476 | 97° | 126km/h | 11075m | 7.2m/s | 0°C | 0% | 0hPa | 0V | 00:00:00 | 00:00:00 | 00:00:00 | |
| HA6NAB-11 | 2026-09-01 23:49:01 | 49.00908 | 20.74238 | 94° | 120km/h | 11048m | 5.5m/s | 0°C | 0% | 0hPa | 0V | 00:00:00 | 00:00:00 | 00:00:00 | |
| HA6NAB-11 | 2026-09-01 23:48:55 | 49.00928 | 20.73962 | 98° | 122km/h | 11008m | 7.4m/s | 0°C | 0% | 0hPa | 0V | 00:00:00 | 00:00:00 | 00:00:00 | |
| SQ9EZE-13 | 2026-09-01 23:48:54 | 49.00932 | 20.73915 | 97° | 124km/h | 11002m | 4.7m/s | -51.6°C | 24.5% | 238.0hPa | 0V | 00:00:00 | 00:00:00 | 00:00:00 | |
| SQ9EZE-13 | 2026-09-01 23:48:39 | 49.00988 | 20.73203 | 98° | 122km/h | 10915m | 4.3m/s | -51.3°C | 28.6% | 241.3hPa | 0V | 00:00:00 | 00:00:00 | 00:00:00 | |
| SQ9EZE-14 | 2026-09-01 23:48:27 | 49.01030 | 20.72653 | 94° | 124km/h | 10848m | 5.6m/s | -51.2°C | 30.8% | 243.6hPa | 0V | 00:00:00 | 00:00:00 | 00:00:00 | |
| SQ9EZE-13 | 2026-09-01 23:48:24 | 49.01035 | 20.72506 | 95° | 126km/h | 10831m | 4.2m/s | -51.1°C | 31.1% | 244.4hPa | 0V | 00:00:00 | 00:00:00 | 00:00:00 | |
| SQ9EZE-13 | 2026-09-01 23:48:09 | 49.01071 | 20.71789 | 95° | 131km/h | 10752m | 5.8m/s | -50.6°C | 34.2% | 247.3hPa | 0V | 00:00:00 | 00:00:00 | 00:00:00 | |
| SQ9EZE-13 | 2026-09-01 23:47:54 | 49.01126 | 20.71058 | 98° | 128km/h | 10671m | 3.7m/s | -50.1°C | 32.2% | 250.4hPa | 0V | 00:00:00 | 00:00:00 | 00:00:00 | |
| SQ9EZE-13 | 2026-09-01 23:47:38 | 49.01178 | 20.70287 | 95° | 122km/h | 10587m | 6.0m/s | -49.3°C | 29.4% | 253.7hPa | 0V | 00:00:00 | 00:00:00 | 00:00:00 | |
| SQ9EZE-13 | 2026-09-01 23:47:22 | 49.01228 | 20.69513 | 94° | 122km/h | 10503m | 4.9m/s | -48.5°C | 31.2% | 257.1hPa | 0V | 00:00:00 | 00:00:00 | 00:00:00 | |
| SQ9EZE-13 | 2026-09-01 23:47:11 | 49.01285 | 20.68820 | 99° | 115km/h | 10415m | 8.1m/s | -47.8°C | 29.9% | 260.4hPa | 0V | 00:00:00 | 00:00:00 | 00:00:00 | |
| SQ9EZE-13 | 2026-09-01 23:46:52 | 49.01336 | 20.68131 | 93° | 126km/h | 10340m | 5.5m/s | -47.1°C | 27.7% | 263.4hPa | 0V | 00:00:00 | 00:00:00 | 00:00:00 | |
| SQ9EZE-13 | 2026-09-01 23:46:36 | 49.01382 | 20.67371 | 95° | 117km/h | 10272m | 6.2m/s | -46.5°C | 25.5% | 266.1hPa | 0V | 00:00:00 | 00:00:00 | 00:00:00 | |
| SQ9EZE-13 | 2026-09-01 23:46:20 | 49.01441 | 20.66616 | 98° | 108km/h | 10192m | 4.6m/s | -46.0°C | 23.3% | 269.3hPa | 0V | 00:00:00 | 00:00:00 | 00:00:00 | |
| SQ9EZE-14 | 2026-09-01 23:46:05 | 49.01469 | 20.65930 | 93° | 111km/h | 10114m | 6.8m/s | -45.4°C | 19.2% | 272.6hPa | 0V | 00:00:00 | 00:00:00 | 00:00:00 | |
| SQ9EZE-13 | 2026-09-01 23:46:04 | 49.01471 | 20.65886 | 95° | 115km/h | 10108m | 4.2m/s | -45.4°C | 19.3% | 272.7hPa | 0V | 00:00:00 | 00:00:00 | 00:00:00 | |
| SQ9EZE-14 | 2026-09-01 23:45:50 | 49.01506 | 20.65229 | 95° | 122km/h | 10031m | 7.7m/s | -45.1°C | 21.3% | 275.9hPa | 0V | 00:00:00 | 00:00:00 | 00:00:00 | |
| SQ9EZE-13 | 2026-09-01 23:45:49 | 49.01508 | 20.65181 | 92° | 124km/h | 10025m | 4.1m/s | -45.1°C | 21.6% | 276.1hPa | 0V | 00:00:00 | 00:00:00 | 00:00:00 | |
| SQ9EZE-13 | 2026-09-01 23:45:33 | 49.01539 | 20.64435 | 96° | 128km/h | 9940m | 2.8m/s | -44.5°C | 24.1% | 279.7hPa | 0V | 00:00:00 | 00:00:00 | 00:00:00 | |
| SQ9EZE-13 | 2026-09-01 23:45:17 | 49.01583 | 20.63685 | 94° | 128km/h | 9846m | 4.8m/s | -43.7°C | 20.7% | 283.7hPa | 0V | 00:00:00 | 00:00:00 | 00:00:00 | |
| HA6NAB-11 | 2026-09-01 23:45:05 | 49.01619 | 20.63138 | 96° | 119km/h | 9781m | 3.8m/s | 0°C | 0% | 0hPa | 0V | 00:00:00 | 00:00:00 | 00:00:00 | |
| SQ9EZE-13 | 2026-09-01 23:45:01 | 49.01629 | 20.62962 | 96° | 110km/h | 9758m | 5.8m/s | -43.0°C | 19.0% | 287.3hPa | 0V | 00:00:00 | 00:00:00 | 00:00:00 | |
| HA6NAB-11 | 2026-09-01 23:44:59 | 49.01632 | 20.62878 | 93° | 111km/h | 9747m | 8.6m/s | 0°C | 0% | 0hPa | 0V | 00:00:00 | 00:00:00 | 00:00:00 | |
| SQ9EZE-13 | 2026-09-01 23:44:47 | 49.01655 | 20.62310 | 92° | 106km/h | 9662m | 4.2m/s | -42.4°C | 16.9% | 291.4hPa | 0V | 00:00:00 | 00:00:00 | 00:00:00 | |
| OE3JTB-15 | 2026-09-01 23:44:36 | 49.01679 | 20.61845 | 95° | 110km/h | 9597m | 6.6m/s | -41.9°C | 19.8% | 294.1hPa | 0V | 00:00:00 | 00:00:00 | 00:00:00 | |
| SQ9EZE-13 | 2026-09-01 23:44:31 | 49.01688 | 20.61648 | 94° | 100km/h | 9569m | 6.7m/s | -41.7°C | 16.7% | 295.5hPa | 0V | 00:00:00 | 00:00:00 | 00:00:00 | |
| SQ9EZE-13 | 2026-09-01 23:44:16 | 49.01723 | 20.61008 | 96° | 111km/h | 9477m | 3.9m/s | -41.0°C | 15.8% | 299.5hPa | 0V | 00:00:00 | 00:00:00 | 00:00:00 | |
| OE3JTB-15 | 2026-09-01 23:44:07 | 49.01753 | 20.60629 | 95° | 111km/h | 9426m | 6.9m/s | -40.6°C | 18.1% | 301.7hPa | 0V | 00:00:00 | 00:43:48 | 00:00:00 | |
| SQ9EZE-13 | 2026-09-01 23:43:59 | 49.01768 | 20.60329 | 98° | 113km/h | 9378m | 7.7m/s | -40.4°C | 16.5% | 303.9hPa | 0V | 00:00:00 | 00:00:00 | 00:00:00 | |
| SQ9EZE-14 | 2026-09-01 23:43:45 | 49.01807 | 20.59699 | 92° | 110km/h | 9299m | 6.6m/s | -40.0°C | 19.0% | 307.4hPa | 0V | 00:00:00 | 00:00:00 | 00:00:00 | |
| SQ9EZE-13 | 2026-09-01 23:43:43 | 49.01806 | 20.59656 | 90° | 111km/h | 9292m | 6.0m/s | -39.9°C | 19.2% | 307.7hPa | 0V | 00:00:00 | 00:00:00 | 00:00:00 | |
| OE3JTB-15 | 2026-09-01 23:43:38 | 49.01810 | 20.59399 | 96° | 100km/h | 9256m | 6.8m/s | 0°C | 0% | 0hPa | 0V | 00:00:00 | 00:00:00 | 00:00:00 | |
| SQ9EZE-14 | 2026-09-01 23:43:28 | 49.01829 | 20.59015 | 90° | 99km/h | 9201m | 6.4m/s | -39.9°C | 25.5% | 311.8hPa | 0V | 00:00:00 | 00:00:00 | 00:00:00 | |
| SQ9EZE-13 | 2026-09-01 23:43:27 | 49.01829 | 20.58978 | 91° | 93km/h | 9196m | 4.4m/s | -39.8°C | 25.7% | 312.1hPa | 0V | 00:00:00 | 00:00:00 | 00:00:00 | |
| SQ9EZE-13 | 2026-09-01 23:43:12 | 49.01847 | 20.58430 | 95° | 89km/h | 9111m | 7.6m/s | -39.1°C | 25.4% | 316.0hPa | 0V | 00:00:00 | 00:00:00 | 00:00:00 | |
| OE3JTB-15 | 2026-09-01 23:43:09 | 49.01857 | 20.58284 | 99° | 89km/h | 9085m | 7.1m/s | 0°C | 0% | 0hPa | 0V | 00:00:00 | 00:00:00 | 00:00:00 | |
| SQ9EZE-13 | 2026-09-01 23:42:57 | 49.01866 | 20.57886 | 95° | 97km/h | 9018m | 5.3m/s | -38.5°C | 26.9% | 320.4hPa | 0V | 00:00:00 | 00:00:00 | 00:00:00 | |
| SQ9EZE-13 | 2026-09-01 23:42:41 | 49.01897 | 20.57334 | 96° | 84km/h | 8921m | 4.6m/s | -37.7°C | 27.0% | 324.8hPa | 0V | 00:00:00 | 00:00:00 | 00:00:00 | |
| SQ9EZE-13 | 2026-09-01 23:42:26 | 49.01947 | 20.56778 | 94° | 86km/h | 8823m | 5.5m/s | -36.8°C | 25.4% | 329.4hPa | 0V | 00:00:00 | 00:00:00 | 00:00:00 | |
| SQ9EZE-13 | 2026-09-01 23:42:10 | 49.01986 | 20.56234 | 102° | 88km/h | 8729m | 4.4m/s | -35.9°C | 24.5% | 333.9hPa | 0V | 00:00:00 | 00:00:00 | 00:00:00 | |
| SQ9EZE-13 | 2026-09-01 23:41:55 | 49.02033 | 20.55711 | 98° | 82km/h | 8641m | 5.2m/s | -35.1°C | 25.0% | 338.2hPa | 0V | 00:00:00 | 00:00:00 | 00:00:00 | |
| SQ9EZE-13 | 2026-09-01 23:41:39 | 49.02054 | 20.55156 | 95° | 80km/h | 8557m | 3.2m/s | -34.4°C | 24.3% | 342.3hPa | 0V | 00:00:00 | 00:00:00 | 00:00:00 | |
| SQ9EZE-13 | 2026-09-01 23:41:23 | 49.02087 | 20.54647 | 100° | 80km/h | 8470m | 3.7m/s | -33.6°C | 24.3% | 346.5hPa | 0V | 00:00:00 | 00:00:00 | 00:00:00 | |
| SQ9EZE-14 | 2026-09-01 23:41:22 | 49.02090 | 20.54617 | 100° | 77km/h | 8465m | 6.2m/s | -33.6°C | 24.2% | 346.7hPa | 0V | 00:00:00 | 00:00:00 | 00:00:00 | |
| SQ9EZE-13 | 2026-09-01 23:41:08 | 49.02139 | 20.54124 | 104° | 84km/h | 8382m | 6.6m/s | -33.0°C | 24.1% | 350.9hPa | 0V | 00:00:00 | 00:00:00 | 00:00:00 | |
| SQ9EZE-14 | 2026-09-01 23:41:07 | 49.02144 | 20.54092 | 101° | 86km/h | 8377m | 4.1m/s | -33.0°C | 24.1% | 351.2hPa | 0V | 00:00:00 | 00:00:00 | 00:00:00 | |
| SQ9EZE-13 | 2026-09-01 23:40:52 | 49.02171 | 20.53629 | 99° | 89km/h | 8298m | 6.4m/s | -32.4°C | 24.5% | 355.3hPa | 0V | 00:00:00 | 00:00:00 | 00:00:00 | |
| SQ9EZE-13 | 2026-09-01 23:40:37 | 49.02210 | 20.53094 | 95° | 91km/h | 8208m | 2.8m/s | -31.8°C | 26.9% | 359.8hPa | 0V | 00:00:00 | 00:00:00 | 00:00:00 | |
| SQ9EZE-13 | 2026-09-01 23:40:20 | 49.02214 | 20.52568 | 86° | 93km/h | 8128m | 2.7m/s | -31.2°C | 27.5% | 363.8hPa | 0V | 00:00:00 | 00:00:00 | 00:00:00 | |
| OE3JTB-15 | 2026-09-01 23:40:12 | 49.02224 | 20.52273 | 95° | 80km/h | 8077m | 6.3m/s | 0°C | 0% | 0hPa | 0V | 00:00:00 | 00:39:53 | 00:00:00 | |
| SQ9EZE-13 | 2026-09-01 23:39:49 | 49.02235 | 20.51573 | 92° | 77km/h | 7948m | 7.1m/s | -29.6°C | 20.0% | 373.3hPa | 0V | 00:00:00 | 00:00:00 | 00:00:00 | |
| OE3JTB-15 | 2026-09-01 23:39:43 | 49.02238 | 20.51397 | 90° | 78km/h | 7912m | 4.7m/s | 0°C | 0% | 0hPa | 0V | 00:00:00 | 00:00:00 | 00:00:00 | |
| SQ9EZE-13 | 2026-09-01 23:39:33 | 49.02239 | 20.51119 | 95° | 78km/h | 7858m | 3.4m/s | -28.8°C | 12.6% | 377.9hPa | 0V | 00:00:00 | 00:00:00 | 00:00:00 | |
| SQ9EZE-13 | 2026-09-01 23:39:17 | 49.02244 | 20.50638 | 90° | 80km/h | 7776m | 4.1m/s | -28.1°C | 13.0% | 382.2hPa | 0V | 00:00:00 | 00:00:00 | 00:00:00 | |
| OE3JTB-15 | 2026-09-01 23:39:13 | 49.02247 | 20.50486 | 96° | 80km/h | 7747m | 6.2m/s | 0°C | 0% | 0hPa | 0V | 00:00:00 | 00:00:00 | 00:00:00 | |
| SQ9EZE-13 | 2026-09-01 23:39:02 | 49.02264 | 20.50171 | 93° | 82km/h | 7694m | 5.5m/s | -27.3°C | 11.9% | 386.6hPa | 0V | 00:00:00 | 00:00:00 | 00:00:00 | |
| SQ9EZE-14 | 2026-09-01 23:38:59 | 49.02265 | 20.50069 | 88° | 93km/h | 7677m | 5.6m/s | -27.1°C | 11.8% | 387.5hPa | 0V | 00:00:00 | 00:00:00 | 00:00:00 | |
| SQ9EZE-13 | 2026-09-01 23:38:47 | 49.02253 | 20.49693 | 95° | 77km/h | 7612m | 3.8m/s | -26.6°C | 10.9% | 391.0hPa | 0V | 00:00:00 | 00:00:00 | 00:00:00 | |
| SQ9EZE-14 | 2026-09-01 23:38:45 | 49.02255 | 20.49603 | 91° | 78km/h | 7597m | 3.8m/s | -26.5°C | 11.0% | 391.9hPa | 0V | 00:00:00 | 00:00:00 | 00:00:00 | |
| OE3JTB-15 | 2026-09-01 23:38:36 | 49.02251 | 20.49327 | 91° | 80km/h | 7562m | 4.4m/s | 0°C | 0% | 0hPa | 0V | 00:00:00 | 00:38:17 | 00:00:00 | |
| SQ9EZE-13 | 2026-09-01 23:38:31 | 49.02246 | 20.49203 | 88° | 88km/h | 7547m | 4.8m/s | -26.0°C | 11.1% | 394.7hPa | 0V | 00:00:00 | 00:00:00 | 00:00:00 | |
| SQ9EZE-13 | 2026-09-01 23:38:15 | 49.02238 | 20.48713 | 91° | 88km/h | 7463m | 3.8m/s | -25.4°C | 11.0% | 399.2hPa | 0V | 00:00:00 | 00:00:00 | 00:00:00 | |
| OE3JTB-15 | 2026-09-01 23:38:06 | 49.02249 | 20.48404 | 99° | 69km/h | 7412m | 5.1m/s | 0°C | 0% | 0hPa | 0V | 00:00:00 | 00:00:00 | 00:00:00 | |
| SQ9EZE-13 | 2026-09-01 23:38:01 | 49.02259 | 20.48273 | 95° | 69km/h | 7384m | 4.8m/s | -24.9°C | 9.0% | 403.5hPa | 0V | 00:00:00 | 00:00:00 | 00:00:00 | |
| SQ9EZE-13 | 2026-09-01 23:37:45 | 49.02257 | 20.47838 | 93° | 75km/h | 7308m | 3.8m/s | -24.4°C | 10.5% | 407.9hPa | 0V | 00:00:00 | 00:00:00 | 00:00:00 | |
| SQ9EZE-13 | 2026-09-01 23:37:30 | 49.02263 | 20.47397 | 87° | 75km/h | 7239m | 3.7m/s | -24.5°C | 25.5% | 411.6hPa | 0V | 00:00:00 | 00:00:00 | 00:00:00 | |
| SQ9EZE-13 | 2026-09-01 23:37:15 | 49.02259 | 20.46994 | 87° | 71km/h | 7167m | 6.2m/s | -24.1°C | 32.7% | 415.7hPa | 0V | 00:00:00 | 00:00:00 | 00:00:00 | |
| SQ9EZE-13 | 2026-09-01 23:36:58 | 49.02206 | 20.46580 | 75° | 71km/h | 7094m | 3.7m/s | -23.7°C | 50.7% | 420.0hPa | 0V | 00:00:00 | 00:00:00 | 00:00:00 | |
| SQ9EZE-13 | 2026-09-01 23:36:44 | 49.02164 | 20.46196 | 76° | 75km/h | 7012m | 7.1m/s | -23.5°C | 64.1% | 424.7hPa | 0V | 00:00:00 | 00:00:00 | 00:00:00 | |
| SQ9EZE-14 | 2026-09-01 23:36:38 | 49.02139 | 20.46025 | 79° | 71km/h | 6976m | 5.6m/s | -23.5°C | 68.8% | 426.9hPa | 0V | 00:00:00 | 00:00:00 | 00:00:00 | |
| SQ9EZE-13 | 2026-09-01 23:36:28 | 49.02096 | 20.45788 | 79° | 71km/h | 6935m | 5.3m/s | -23.2°C | 65.9% | 429.2hPa | 0V | 00:00:00 | 00:00:00 | 00:00:00 | |
| SQ9EZE-14 | 2026-09-01 23:36:22 | 49.02087 | 20.45638 | 91° | 71km/h | 6906m | 3.9m/s | -22.9°C | 61.7% | 430.9hPa | 0V | 00:00:00 | 00:00:00 | 00:00:00 | |
| SQ9EZE-13 | 2026-09-01 23:35:57 | 49.01992 | 20.44996 | 91° | 60km/h | 6770m | 6.2m/s | -21.9°C | 33.5% | 438.9hPa | 0V | 00:00:00 | 00:00:00 | 00:00:00 | |
| SQ9EZE-13 | 2026-09-01 23:35:41 | 49.01986 | 20.44639 | 91° | 53km/h | 6672m | 7.2m/s | -21.4°C | 57.8% | 444.7hPa | 0V | 00:00:00 | 00:00:00 | 00:00:00 | |
| SQ9EZE-13 | 2026-09-01 23:35:26 | 49.01984 | 20.44306 | 96° | 51km/h | 6584m | 9.0m/s | -20.6°C | 40.1% | 449.9hPa | 0V | 00:00:00 | 00:00:00 | 00:00:00 | |
| SQ9EZE-13 | 2026-09-01 23:35:10 | 49.02016 | 20.43968 | 112° | 51km/h | 6485m | 5.8m/s | -19.7°C | 28.5% | 456.1hPa | 0V | 00:00:00 | 00:00:00 | 00:00:00 | |
| SQ9EZE-13 | 2026-09-01 23:34:54 | 49.02031 | 20.43608 | 90° | 66km/h | 6379m | 5.9m/s | -18.9°C | 30.9% | 462.6hPa | 0V | 00:00:00 | 00:00:00 | 00:00:00 | |
| SQ9EZE-13 | 2026-09-01 23:34:39 | 49.02050 | 20.43277 | 99° | 55km/h | 6277m | 6.0m/s | -18.0°C | 29.7% | 469.1hPa | 0V | 00:00:00 | 00:00:00 | 00:00:00 | |
| SQ9EZE-13 | 2026-09-01 23:34:23 | 49.02060 | 20.42970 | 93° | 55km/h | 6203m | 4.0m/s | -17.8°C | 20.8% | 473.7hPa | 0V | 00:00:00 | 00:00:00 | 00:00:00 | |
| SQ9EZE-14 | 2026-09-01 23:34:15 | 49.02051 | 20.42811 | 93° | 62km/h | 6169m | 3.4m/s | -17.8°C | 32.4% | 475.8hPa | 0V | 00:00:00 | 00:00:00 | 00:00:00 | |
| SQ9EZE-13 | 2026-09-01 23:34:07 | 49.02052 | 20.42642 | 81° | 46km/h | 6113m | 6.7m/s | -17.7°C | 56.8% | 479.3hPa | 0V | 00:00:00 | 00:00:00 | 00:00:00 | |
| SQ9EZE-14 | 2026-09-01 23:34:00 | 49.02047 | 20.42525 | 103° | 38km/h | 6076m | 6.0m/s | -17.4°C | 0% | 0hPa | 0V | 00:00:00 | 00:00:00 | 00:00:00 | |
| SQ9EZE-13 | 2026-09-01 23:33:52 | 49.02065 | 20.42374 | 102° | 58km/h | 6030m | 4.8m/s | -17.1°C | 59.5% | 484.9hPa | 0V | 00:00:00 | 00:00:00 | 00:00:00 | |
| SQ9EZE-13 | 2026-09-01 23:33:36 | 49.02092 | 20.42068 | 107° | 47km/h | 5944m | 7.5m/s | -16.3°C | 55.7% | 490.6hPa | 0V | 00:00:00 | 00:00:00 | 00:00:00 | |
| SQ9EZE-13 | 2026-09-01 23:33:22 | 49.02095 | 20.41815 | 88° | 53km/h | 5859m | 4.5m/s | -15.6°C | 48.6% | 496.1hPa | 0V | 00:00:00 | 00:00:00 | 00:00:00 | |
| SQ9EZE-13 | 2026-09-01 23:33:05 | 49.02108 | 20.41547 | 83° | 35km/h | 5789m | 4.9m/s | -15.3°C | 50.3% | 500.7hPa | 0V | 00:00:00 | 00:00:00 | 00:00:00 | |
| SQ9EZE-13 | 2026-09-01 23:32:49 | 49.02111 | 20.41285 | 82° | 46km/h | 5700m | 4.0m/s | -14.6°C | 50.0% | 506.5hPa | 0V | 00:00:00 | 00:00:00 | 00:00:00 | |
| SQ9EZE-13 | 2026-09-01 23:32:33 | 49.02157 | 20.41006 | 113° | 53km/h | 5616m | 5.3m/s | -13.9°C | 47.0% | 512.1hPa | 0V | 00:00:00 | 00:00:00 | 00:00:00 | |
| SQ9EZE-13 | 2026-09-01 23:32:18 | 49.02203 | 20.40783 | 108° | 40km/h | 5532m | 3.8m/s | -13.2°C | 48.6% | 517.8hPa | 0V | 00:00:00 | 00:00:00 | 00:00:00 | |
| SQ9EZE-13 | 2026-09-01 23:32:02 | 49.02254 | 20.40525 | 105° | 47km/h | 5474m | 3.2m/s | -12.9°C | 49.6% | 521.9hPa | 0V | 00:00:00 | 00:00:00 | 00:00:00 | |
| SQ9EZE-14 | 2026-09-01 23:31:55 | 49.02269 | 20.40382 | 92° | 46km/h | 5446m | 3.7m/s | -12.7°C | 0% | 0hPa | 0V | 00:00:00 | 00:00:00 | 00:00:00 | |
| SQ9EZE-13 | 2026-09-01 23:31:47 | 49.02280 | 20.40260 | 96° | 44km/h | 5409m | 6.6m/s | -12.4°C | 51.7% | 526.3hPa | 0V | 00:00:00 | 00:00:00 | 00:00:00 | |
| SQ9EZE-14 | 2026-09-01 23:31:38 | 49.02302 | 20.40084 | 112° | 53km/h | 5359m | 5.0m/s | -11.9°C | 0% | 0hPa | 0V | 00:00:00 | 00:00:00 | 00:00:00 | |
| SQ9EZE-13 | 2026-09-01 23:31:32 | 49.02319 | 20.39988 | 103° | 40km/h | 5335m | 2.8m/s | -11.7°C | 50.6% | 531.5hPa | 0V | 00:00:00 | 00:00:00 | 00:00:00 | |
| SQ9EZE-13 | 2026-09-01 23:31:16 | 49.02384 | 20.39695 | 103° | 51km/h | 5256m | 4.6m/s | -11.0°C | 41.9% | 536.9hPa | 0V | 00:00:00 | 00:00:00 | 00:00:00 | |
| SQ9EZE-13 | 2026-09-01 23:31:01 | 49.02431 | 20.39413 | 111° | 57km/h | 5174m | 4.5m/s | -10.3°C | 40.6% | 542.6hPa | 0V | 00:00:00 | 00:00:00 | 00:00:00 | |
| SQ9EZE-13 | 2026-09-01 23:30:45 | 49.02486 | 20.39119 | 108° | 62km/h | 5100m | 5.1m/s | -10.0°C | 47.6% | 547.7hPa | 0V | 00:00:00 | 00:00:00 | 00:00:00 | |
| SQ9EZE-13 | 2026-09-01 23:30:30 | 49.02545 | 20.38854 | 112° | 49km/h | 5030m | 4.3m/s | -9.3°C | 46.8% | 552.8hPa | 0V | 00:00:00 | 00:00:00 | 00:00:00 | |
| SQ9EZE-13 | 2026-09-01 23:30:16 | 49.02625 | 20.38568 | 101° | 58km/h | 4965m | 4.8m/s | -8.9°C | 51.6% | 557.6hPa | 0V | 00:00:00 | 00:00:00 | 00:00:00 | |
| SQ9EZE-13 | 2026-09-01 23:29:59 | 49.02699 | 20.38250 | 101° | 55km/h | 4895m | 6.1m/s | -8.7°C | 36.7% | 562.4hPa | 0V | 00:00:00 | 00:00:00 | 00:00:00 | |
| SQ9EZE-13 | 2026-09-01 23:29:44 | 49.02755 | 20.37975 | 118° | 64km/h | 4826m | 6.9m/s | -8.3°C | 42.3% | 567.5hPa | 0V | 00:00:00 | 00:00:00 | 00:00:00 | |
| SQ9EZE-14 | 2026-09-01 23:29:31 | 49.02825 | 20.37714 | 118° | 62km/h | 4760m | 4.3m/s | -7.8°C | 0% | 0hPa | 0V | 00:00:00 | 00:00:00 | 00:00:00 | |
| SQ9EZE-13 | 2026-09-01 23:29:29 | 49.02841 | 20.37672 | 120° | 66km/h | 4751m | 3.5m/s | -7.7°C | 36.8% | 573.0hPa | 0V | 00:00:00 | 00:00:00 | 00:00:00 | |
| SQ9EZE-14 | 2026-09-01 23:29:16 | 49.02886 | 20.37420 | 114° | 47km/h | 4682m | 6.1m/s | 0°C | 0% | 0hPa | 0V | 00:00:00 | 00:00:00 | 00:00:00 | |
| SQ9EZE-13 | 2026-09-01 23:29:13 | 49.02899 | 20.37369 | 111° | 49km/h | 4668m | 4.1m/s | -7.3°C | 44.3% | 579.2hPa | 0V | 00:00:00 | 00:00:00 | 00:00:00 | |
| SQ9EZE-13 | 2026-09-01 23:28:58 | 49.02980 | 20.37108 | 110° | 64km/h | 4597m | 3.6m/s | -6.7°C | 35.4% | 584.3hPa | 0V | 00:00:00 | 00:00:00 | 00:00:00 | |
| SQ9EZE-13 | 2026-09-01 23:28:42 | 49.03073 | 20.36803 | 113° | 51km/h | 4525m | 2.9m/s | -6.4°C | 29.7% | 589.9hPa | 0V | 00:00:00 | 00:00:00 | 00:00:00 | |
| SQ9EZE-13 | 2026-09-01 23:28:26 | 49.03138 | 20.36476 | 117° | 55km/h | 4445m | 6.4m/s | -5.9°C | 16.0% | 595.9hPa | 0V | 00:00:00 | 00:00:00 | 00:00:00 | |
| SQ9EZE-13 | 2026-09-01 23:28:11 | 49.03192 | 20.36177 | 92° | 49km/h | 4372m | 6.2m/s | -5.4°C | 9.0% | 601.5hPa | 0V | 00:00:00 | 00:00:00 | 00:00:00 | |
| SQ9EZE-13 | 2026-09-01 23:27:40 | 49.03243 | 20.35667 | 93° | 38km/h | 4220m | 4.6m/s | -4.6°C | 12.3% | 613.2hPa | 0V | 00:00:00 | 00:00:00 | 00:00:00 | |
| SQ9EZE-13 | 2026-09-01 23:27:25 | 49.03242 | 20.35405 | 88° | 42km/h | 4154m | 5.7m/s | -4.0°C | 0% | 618.6hPa | 0V | 00:00:00 | 00:00:00 | 00:00:00 | |
| SQ9EZE-13 | 2026-09-01 23:27:10 | 49.03252 | 20.35178 | 78° | 51km/h | 4092m | 4.7m/s | -3.7°C | 0% | 0hPa | 0V | 00:00:00 | 00:00:00 | 00:00:00 | |
| SQ9EZE-13 | 2026-09-01 23:26:55 | 49.03238 | 20.34937 | 94° | 37km/h | 4018m | 4.8m/s | -3.3°C | 0% | 0hPa | 0V | 00:00:00 | 00:00:00 | 00:00:00 | |
| SQ9EZE-14 | 2026-09-01 23:26:54 | 49.03240 | 20.34923 | 103° | 35km/h | 4013m | 5.1m/s | 0°C | 0% | 0hPa | 0V | 00:00:00 | 00:00:00 | 00:00:00 | |
| SQ9EZE-13 | 2026-09-01 23:26:39 | 49.03243 | 20.34677 | 97° | 26km/h | 3935m | 7.0m/s | 0°C | 0% | 0hPa | 0V | 00:00:00 | 00:00:00 | 00:00:00 |